<?xml version="1.0" encoding="UTF-8" standalone="no" ?>
<gpx xmlns="http://www.topografix.com/GPX/1/1" xmlns:xsi="http://www.w3.org/2001/XMLSchema-instance" xsi:schemaLocation="http://www.topografix.com/GPX/1/1 http://www.topografix.com/GPX/1/1/gpx.xsd" version="1.1" creator="VisuGPX - https://www.visugpx.com">
  <metadata>
    <name>VacancesDricouZoe</name>
  </metadata>
  <trk>
    <name><![CDATA[Journal actif: 2021-07-04 10:31]]></name>
    <trkseg>
      <trkpt lat="44.10278" lon="-0.54943">
        <ele>76.56</ele>
        <time>2021-07-04T12:31:56Z</time>
      </trkpt>
      <trkpt lat="44.10292" lon="-0.54916">
        <ele>76.56</ele>
        <time>2021-07-04T12:32:26Z</time>
      </trkpt>
      <trkpt lat="44.10303" lon="-0.5482">
        <ele>77.52</ele>
        <time>2021-07-04T12:32:38Z</time>
      </trkpt>
      <trkpt lat="44.10311" lon="-0.54668">
        <ele>78.48</ele>
        <time>2021-07-04T12:32:57Z</time>
      </trkpt>
      <trkpt lat="44.10314" lon="-0.54651">
        <ele>78.97</ele>
        <time>2021-07-04T12:32:59Z</time>
      </trkpt>
      <trkpt lat="44.10316" lon="-0.54642">
        <ele>78.97</ele>
        <time>2021-07-04T12:33:00Z</time>
      </trkpt>
      <trkpt lat="44.10318" lon="-0.54634">
        <ele>79.45</ele>
        <time>2021-07-04T12:33:01Z</time>
      </trkpt>
      <trkpt lat="44.10349" lon="-0.54539">
        <ele>80.89</ele>
        <time>2021-07-04T12:33:15Z</time>
      </trkpt>
      <trkpt lat="44.1035" lon="-0.54533">
        <ele>81.37</ele>
        <time>2021-07-04T12:33:24Z</time>
      </trkpt>
      <trkpt lat="44.10352" lon="-0.54532">
        <ele>81.37</ele>
        <time>2021-07-04T12:33:25Z</time>
      </trkpt>
      <trkpt lat="44.10356" lon="-0.54531">
        <ele>81.37</ele>
        <time>2021-07-04T12:33:26Z</time>
      </trkpt>
      <trkpt lat="44.10415" lon="-0.54512">
        <ele>76.08</ele>
        <time>2021-07-04T12:33:37Z</time>
      </trkpt>
      <trkpt lat="44.10453" lon="-0.54501">
        <ele>72.24</ele>
        <time>2021-07-04T12:33:44Z</time>
      </trkpt>
      <trkpt lat="44.10457" lon="-0.545">
        <ele>72.24</ele>
        <time>2021-07-04T12:33:45Z</time>
      </trkpt>
      <trkpt lat="44.10462" lon="-0.54499">
        <ele>72.24</ele>
        <time>2021-07-04T12:33:46Z</time>
      </trkpt>
      <trkpt lat="44.10466" lon="-0.54497">
        <ele>72.24</ele>
        <time>2021-07-04T12:33:47Z</time>
      </trkpt>
      <trkpt lat="44.10471" lon="-0.54502">
        <ele>71.76</ele>
        <time>2021-07-04T12:33:48Z</time>
      </trkpt>
      <trkpt lat="44.10472" lon="-0.54507">
        <ele>71.76</ele>
        <time>2021-07-04T12:33:49Z</time>
      </trkpt>
      <trkpt lat="44.10472" lon="-0.54513">
        <ele>71.27</ele>
        <time>2021-07-04T12:33:50Z</time>
      </trkpt>
      <trkpt lat="44.10474" lon="-0.54522">
        <ele>70.79</ele>
        <time>2021-07-04T12:33:51Z</time>
      </trkpt>
      <trkpt lat="44.10502" lon="-0.54639">
        <ele>72.72</ele>
        <time>2021-07-04T12:34:00Z</time>
      </trkpt>
      <trkpt lat="44.10552" lon="-0.54831">
        <ele>74.16</ele>
        <time>2021-07-04T12:34:12Z</time>
      </trkpt>
      <trkpt lat="44.10555" lon="-0.54844">
        <ele>74.64</ele>
        <time>2021-07-04T12:34:13Z</time>
      </trkpt>
      <trkpt lat="44.10603" lon="-0.55013">
        <ele>80.89</ele>
        <time>2021-07-04T12:34:24Z</time>
      </trkpt>
      <trkpt lat="44.10625" lon="-0.55094">
        <ele>77.52</ele>
        <time>2021-07-04T12:34:30Z</time>
      </trkpt>
      <trkpt lat="44.10627" lon="-0.55104">
        <ele>78</ele>
        <time>2021-07-04T12:34:31Z</time>
      </trkpt>
      <trkpt lat="44.10663" lon="-0.55235">
        <ele>80.89</ele>
        <time>2021-07-04T12:34:40Z</time>
      </trkpt>
      <trkpt lat="44.10714" lon="-0.5543">
        <ele>74.64</ele>
        <time>2021-07-04T12:34:52Z</time>
      </trkpt>
      <trkpt lat="44.10761" lon="-0.55648">
        <ele>75.6</ele>
        <time>2021-07-04T12:35:03Z</time>
      </trkpt>
      <trkpt lat="44.1079" lon="-0.55916">
        <ele>76.08</ele>
        <time>2021-07-04T12:35:14Z</time>
      </trkpt>
      <trkpt lat="44.10818" lon="-0.56186">
        <ele>76.08</ele>
        <time>2021-07-04T12:35:25Z</time>
      </trkpt>
      <trkpt lat="44.10846" lon="-0.56478">
        <ele>81.37</ele>
        <time>2021-07-04T12:35:35Z</time>
      </trkpt>
      <trkpt lat="44.10886" lon="-0.56863">
        <ele>85.69</ele>
        <time>2021-07-04T12:35:50Z</time>
      </trkpt>
      <trkpt lat="44.10928" lon="-0.57198">
        <ele>81.85</ele>
        <time>2021-07-04T12:36:02Z</time>
      </trkpt>
      <trkpt lat="44.1099" lon="-0.57647">
        <ele>78.48</ele>
        <time>2021-07-04T12:36:18Z</time>
      </trkpt>
      <trkpt lat="44.11051" lon="-0.58112">
        <ele>73.68</ele>
        <time>2021-07-04T12:36:34Z</time>
      </trkpt>
      <trkpt lat="44.11089" lon="-0.58401">
        <ele>73.2</ele>
        <time>2021-07-04T12:36:44Z</time>
      </trkpt>
      <trkpt lat="44.11143" lon="-0.58808">
        <ele>73.68</ele>
        <time>2021-07-04T12:36:58Z</time>
      </trkpt>
      <trkpt lat="44.11191" lon="-0.59166">
        <ele>77.52</ele>
        <time>2021-07-04T12:37:10Z</time>
      </trkpt>
      <trkpt lat="44.11254" lon="-0.59635">
        <ele>85.69</ele>
        <time>2021-07-04T12:37:25Z</time>
      </trkpt>
      <trkpt lat="44.11335" lon="-0.60246">
        <ele>88.58</ele>
        <time>2021-07-04T12:37:44Z</time>
      </trkpt>
      <trkpt lat="44.11398" lon="-0.6072">
        <ele>93.87</ele>
        <time>2021-07-04T12:37:59Z</time>
      </trkpt>
      <trkpt lat="44.11415" lon="-0.60847">
        <ele>95.31</ele>
        <time>2021-07-04T12:38:06Z</time>
      </trkpt>
      <trkpt lat="44.11452" lon="-0.61125">
        <ele>95.79</ele>
        <time>2021-07-04T12:38:17Z</time>
      </trkpt>
      <trkpt lat="44.11508" lon="-0.61546">
        <ele>97.23</ele>
        <time>2021-07-04T12:38:32Z</time>
      </trkpt>
      <trkpt lat="44.11586" lon="-0.6213">
        <ele>99.63</ele>
        <time>2021-07-04T12:38:51Z</time>
      </trkpt>
      <trkpt lat="44.11674" lon="-0.62792">
        <ele>98.19</ele>
        <time>2021-07-04T12:39:12Z</time>
      </trkpt>
      <trkpt lat="44.11746" lon="-0.63336">
        <ele>95.31</ele>
        <time>2021-07-04T12:39:30Z</time>
      </trkpt>
      <trkpt lat="44.11816" lon="-0.63871">
        <ele>93.39</ele>
        <time>2021-07-04T12:39:48Z</time>
      </trkpt>
      <trkpt lat="44.11869" lon="-0.64272">
        <ele>91.94</ele>
        <time>2021-07-04T12:40:02Z</time>
      </trkpt>
      <trkpt lat="44.1194" lon="-0.648">
        <ele>93.87</ele>
        <time>2021-07-04T12:40:21Z</time>
      </trkpt>
      <trkpt lat="44.11985" lon="-0.65092">
        <ele>93.39</ele>
        <time>2021-07-04T12:40:32Z</time>
      </trkpt>
      <trkpt lat="44.12092" lon="-0.65523">
        <ele>90.98</ele>
        <time>2021-07-04T12:40:48Z</time>
      </trkpt>
      <trkpt lat="44.12226" lon="-0.66067">
        <ele>88.58</ele>
        <time>2021-07-04T12:41:08Z</time>
      </trkpt>
      <trkpt lat="44.12259" lon="-0.66292">
        <ele>86.66</ele>
        <time>2021-07-04T12:41:16Z</time>
      </trkpt>
      <trkpt lat="44.12277" lon="-0.66651">
        <ele>86.66</ele>
        <time>2021-07-04T12:41:28Z</time>
      </trkpt>
      <trkpt lat="44.123" lon="-0.67054">
        <ele>85.21</ele>
        <time>2021-07-04T12:41:42Z</time>
      </trkpt>
      <trkpt lat="44.12344" lon="-0.67351">
        <ele>83.77</ele>
        <time>2021-07-04T12:41:52Z</time>
      </trkpt>
      <trkpt lat="44.12432" lon="-0.67888">
        <ele>84.73</ele>
        <time>2021-07-04T12:42:10Z</time>
      </trkpt>
      <trkpt lat="44.12521" lon="-0.68428">
        <ele>85.21</ele>
        <time>2021-07-04T12:42:28Z</time>
      </trkpt>
      <trkpt lat="44.12573" lon="-0.68633">
        <ele>84.73</ele>
        <time>2021-07-04T12:42:36Z</time>
      </trkpt>
      <trkpt lat="44.12722" lon="-0.6903">
        <ele>84.73</ele>
        <time>2021-07-04T12:42:51Z</time>
      </trkpt>
      <trkpt lat="44.12903" lon="-0.6951">
        <ele>82.81</ele>
        <time>2021-07-04T12:43:07Z</time>
      </trkpt>
      <trkpt lat="44.13101" lon="-0.70038">
        <ele>81.37</ele>
        <time>2021-07-04T12:43:26Z</time>
      </trkpt>
      <trkpt lat="44.13318" lon="-0.70616">
        <ele>78.97</ele>
        <time>2021-07-04T12:43:46Z</time>
      </trkpt>
      <trkpt lat="44.13518" lon="-0.71149">
        <ele>77.52</ele>
        <time>2021-07-04T12:44:05Z</time>
      </trkpt>
      <trkpt lat="44.13573" lon="-0.71295">
        <ele>77.04</ele>
        <time>2021-07-04T12:44:12Z</time>
      </trkpt>
      <trkpt lat="44.13578" lon="-0.71309">
        <ele>76.56</ele>
        <time>2021-07-04T12:44:13Z</time>
      </trkpt>
      <trkpt lat="44.13582" lon="-0.71322">
        <ele>77.52</ele>
        <time>2021-07-04T12:44:14Z</time>
      </trkpt>
      <trkpt lat="44.13586" lon="-0.71346">
        <ele>78</ele>
        <time>2021-07-04T12:44:16Z</time>
      </trkpt>
      <trkpt lat="44.1358" lon="-0.71367">
        <ele>78.48</ele>
        <time>2021-07-04T12:44:19Z</time>
      </trkpt>
      <trkpt lat="44.13579" lon="-0.71372">
        <ele>78.48</ele>
        <time>2021-07-04T12:44:20Z</time>
      </trkpt>
      <trkpt lat="44.13583" lon="-0.71387">
        <ele>78.48</ele>
        <time>2021-07-04T12:44:21Z</time>
      </trkpt>
      <trkpt lat="44.13587" lon="-0.71392">
        <ele>78.48</ele>
        <time>2021-07-04T12:44:22Z</time>
      </trkpt>
      <trkpt lat="44.13591" lon="-0.71398">
        <ele>78</ele>
        <time>2021-07-04T12:44:23Z</time>
      </trkpt>
      <trkpt lat="44.13652" lon="-0.71494">
        <ele>76.08</ele>
        <time>2021-07-04T12:44:31Z</time>
      </trkpt>
      <trkpt lat="44.13732" lon="-0.71653">
        <ele>76.56</ele>
        <time>2021-07-04T12:44:41Z</time>
      </trkpt>
      <trkpt lat="44.13869" lon="-0.71917">
        <ele>76.56</ele>
        <time>2021-07-04T12:44:53Z</time>
      </trkpt>
      <trkpt lat="44.14076" lon="-0.7232">
        <ele>75.12</ele>
        <time>2021-07-04T12:45:09Z</time>
      </trkpt>
      <trkpt lat="44.1415" lon="-0.72528">
        <ele>75.6</ele>
        <time>2021-07-04T12:45:18Z</time>
      </trkpt>
      <trkpt lat="44.14227" lon="-0.7277">
        <ele>76.56</ele>
        <time>2021-07-04T12:45:28Z</time>
      </trkpt>
      <trkpt lat="44.14235" lon="-0.72789">
        <ele>76.56</ele>
        <time>2021-07-04T12:45:29Z</time>
      </trkpt>
      <trkpt lat="44.14244" lon="-0.72809">
        <ele>76.08</ele>
        <time>2021-07-04T12:45:30Z</time>
      </trkpt>
      <trkpt lat="44.14255" lon="-0.72827">
        <ele>75.6</ele>
        <time>2021-07-04T12:45:31Z</time>
      </trkpt>
      <trkpt lat="44.14267" lon="-0.72844">
        <ele>74.64</ele>
        <time>2021-07-04T12:45:32Z</time>
      </trkpt>
      <trkpt lat="44.1428" lon="-0.72862">
        <ele>75.12</ele>
        <time>2021-07-04T12:45:33Z</time>
      </trkpt>
      <trkpt lat="44.14461" lon="-0.73103">
        <ele>73.2</ele>
        <time>2021-07-04T12:45:47Z</time>
      </trkpt>
      <trkpt lat="44.14508" lon="-0.73171">
        <ele>72.24</ele>
        <time>2021-07-04T12:45:51Z</time>
      </trkpt>
      <trkpt lat="44.14518" lon="-0.7319">
        <ele>71.76</ele>
        <time>2021-07-04T12:45:52Z</time>
      </trkpt>
      <trkpt lat="44.14555" lon="-0.73275">
        <ele>71.27</ele>
        <time>2021-07-04T12:45:57Z</time>
      </trkpt>
      <trkpt lat="44.14651" lon="-0.73538">
        <ele>71.76</ele>
        <time>2021-07-04T12:46:15Z</time>
      </trkpt>
      <trkpt lat="44.14746" lon="-0.73799">
        <ele>71.76</ele>
        <time>2021-07-04T12:46:33Z</time>
      </trkpt>
      <trkpt lat="44.14813" lon="-0.73958">
        <ele>71.76</ele>
        <time>2021-07-04T12:46:45Z</time>
      </trkpt>
      <trkpt lat="44.14851" lon="-0.74044">
        <ele>72.72</ele>
        <time>2021-07-04T12:46:53Z</time>
      </trkpt>
      <trkpt lat="44.14856" lon="-0.74051">
        <ele>74.16</ele>
        <time>2021-07-04T12:46:54Z</time>
      </trkpt>
      <trkpt lat="44.14864" lon="-0.74068">
        <ele>74.64</ele>
        <time>2021-07-04T12:46:59Z</time>
      </trkpt>
      <trkpt lat="44.14864" lon="-0.74072">
        <ele>75.12</ele>
        <time>2021-07-04T12:47:00Z</time>
      </trkpt>
      <trkpt lat="44.14863" lon="-0.74077">
        <ele>75.12</ele>
        <time>2021-07-04T12:47:01Z</time>
      </trkpt>
      <trkpt lat="44.14863" lon="-0.74083">
        <ele>75.12</ele>
        <time>2021-07-04T12:47:02Z</time>
      </trkpt>
      <trkpt lat="44.14862" lon="-0.74089">
        <ele>75.12</ele>
        <time>2021-07-04T12:47:03Z</time>
      </trkpt>
      <trkpt lat="44.14861" lon="-0.74096">
        <ele>74.64</ele>
        <time>2021-07-04T12:47:04Z</time>
      </trkpt>
      <trkpt lat="44.1486" lon="-0.74105">
        <ele>74.64</ele>
        <time>2021-07-04T12:47:05Z</time>
      </trkpt>
      <trkpt lat="44.14859" lon="-0.74116">
        <ele>74.64</ele>
        <time>2021-07-04T12:47:06Z</time>
      </trkpt>
      <trkpt lat="44.14847" lon="-0.74299">
        <ele>74.16</ele>
        <time>2021-07-04T12:47:18Z</time>
      </trkpt>
      <trkpt lat="44.14838" lon="-0.74501">
        <ele>74.64</ele>
        <time>2021-07-04T12:47:28Z</time>
      </trkpt>
      <trkpt lat="44.14858" lon="-0.74663">
        <ele>73.68</ele>
        <time>2021-07-04T12:47:36Z</time>
      </trkpt>
      <trkpt lat="44.14875" lon="-0.74751">
        <ele>72.72</ele>
        <time>2021-07-04T12:47:42Z</time>
      </trkpt>
      <trkpt lat="44.14896" lon="-0.74874">
        <ele>73.2</ele>
        <time>2021-07-04T12:47:52Z</time>
      </trkpt>
      <trkpt lat="44.14912" lon="-0.75091">
        <ele>73.2</ele>
        <time>2021-07-04T12:48:03Z</time>
      </trkpt>
      <trkpt lat="44.1493" lon="-0.75296">
        <ele>72.72</ele>
        <time>2021-07-04T12:48:11Z</time>
      </trkpt>
      <trkpt lat="44.14962" lon="-0.7572">
        <ele>71.76</ele>
        <time>2021-07-04T12:48:25Z</time>
      </trkpt>
      <trkpt lat="44.15002" lon="-0.76265">
        <ele>70.79</ele>
        <time>2021-07-04T12:48:41Z</time>
      </trkpt>
      <trkpt lat="44.15046" lon="-0.76847">
        <ele>68.87</ele>
        <time>2021-07-04T12:48:59Z</time>
      </trkpt>
      <trkpt lat="44.15088" lon="-0.77416">
        <ele>67.91</ele>
        <time>2021-07-04T12:49:15Z</time>
      </trkpt>
      <trkpt lat="44.15139" lon="-0.781">
        <ele>68.87</ele>
        <time>2021-07-04T12:49:34Z</time>
      </trkpt>
      <trkpt lat="44.15179" lon="-0.78647">
        <ele>68.87</ele>
        <time>2021-07-04T12:49:49Z</time>
      </trkpt>
      <trkpt lat="44.15206" lon="-0.79051">
        <ele>60.22</ele>
        <time>2021-07-04T12:50:03Z</time>
      </trkpt>
      <trkpt lat="44.15231" lon="-0.79439">
        <ele>64.07</ele>
        <time>2021-07-04T12:50:16Z</time>
      </trkpt>
      <trkpt lat="44.15269" lon="-0.80019">
        <ele>65.99</ele>
        <time>2021-07-04T12:50:34Z</time>
      </trkpt>
      <trkpt lat="44.15303" lon="-0.80671">
        <ele>70.31</ele>
        <time>2021-07-04T12:50:54Z</time>
      </trkpt>
      <trkpt lat="44.15271" lon="-0.81043">
        <ele>70.31</ele>
        <time>2021-07-04T12:51:05Z</time>
      </trkpt>
      <trkpt lat="44.15181" lon="-0.81944">
        <ele>73.68</ele>
        <time>2021-07-04T12:51:31Z</time>
      </trkpt>
      <trkpt lat="44.15095" lon="-0.82804">
        <ele>75.12</ele>
        <time>2021-07-04T12:51:56Z</time>
      </trkpt>
      <trkpt lat="44.15029" lon="-0.83461">
        <ele>75.6</ele>
        <time>2021-07-04T12:52:15Z</time>
      </trkpt>
      <trkpt lat="44.14912" lon="-0.84618">
        <ele>77.04</ele>
        <time>2021-07-04T12:52:48Z</time>
      </trkpt>
      <trkpt lat="44.14849" lon="-0.85245">
        <ele>77.52</ele>
        <time>2021-07-04T12:53:06Z</time>
      </trkpt>
      <trkpt lat="44.14798" lon="-0.8575">
        <ele>78.97</ele>
        <time>2021-07-04T12:53:21Z</time>
      </trkpt>
      <trkpt lat="44.1475" lon="-0.86231">
        <ele>79.45</ele>
        <time>2021-07-04T12:53:36Z</time>
      </trkpt>
      <trkpt lat="44.14703" lon="-0.86689">
        <ele>78.97</ele>
        <time>2021-07-04T12:53:51Z</time>
      </trkpt>
      <trkpt lat="44.14632" lon="-0.87334">
        <ele>79.45</ele>
        <time>2021-07-04T12:54:11Z</time>
      </trkpt>
      <trkpt lat="44.14575" lon="-0.87836">
        <ele>78.48</ele>
        <time>2021-07-04T12:54:26Z</time>
      </trkpt>
      <trkpt lat="44.14507" lon="-0.88432">
        <ele>80.89</ele>
        <time>2021-07-04T12:54:44Z</time>
      </trkpt>
      <trkpt lat="44.14497" lon="-0.88738">
        <ele>80.89</ele>
        <time>2021-07-04T12:54:53Z</time>
      </trkpt>
      <trkpt lat="44.145" lon="-0.89186">
        <ele>82.81</ele>
        <time>2021-07-04T12:55:06Z</time>
      </trkpt>
      <trkpt lat="44.14503" lon="-0.89475">
        <ele>81.37</ele>
        <time>2021-07-04T12:55:16Z</time>
      </trkpt>
      <trkpt lat="44.14505" lon="-0.89752">
        <ele>79.45</ele>
        <time>2021-07-04T12:55:27Z</time>
      </trkpt>
      <trkpt lat="44.14508" lon="-0.90096">
        <ele>78</ele>
        <time>2021-07-04T12:55:41Z</time>
      </trkpt>
      <trkpt lat="44.14512" lon="-0.90502">
        <ele>77.04</ele>
        <time>2021-07-04T12:55:56Z</time>
      </trkpt>
      <trkpt lat="44.14515" lon="-0.90857">
        <ele>77.52</ele>
        <time>2021-07-04T12:56:08Z</time>
      </trkpt>
      <trkpt lat="44.14518" lon="-0.9109">
        <ele>77.52</ele>
        <time>2021-07-04T12:56:19Z</time>
      </trkpt>
      <trkpt lat="44.14519" lon="-0.91282">
        <ele>79.45</ele>
        <time>2021-07-04T12:56:29Z</time>
      </trkpt>
      <trkpt lat="44.14519" lon="-0.91547">
        <ele>78</ele>
        <time>2021-07-04T12:56:45Z</time>
      </trkpt>
      <trkpt lat="44.14519" lon="-0.91702">
        <ele>78</ele>
        <time>2021-07-04T12:56:57Z</time>
      </trkpt>
      <trkpt lat="44.14522" lon="-0.91956">
        <ele>78</ele>
        <time>2021-07-04T12:57:11Z</time>
      </trkpt>
      <trkpt lat="44.14524" lon="-0.92025">
        <ele>79.45</ele>
        <time>2021-07-04T12:57:16Z</time>
      </trkpt>
      <trkpt lat="44.14525" lon="-0.92098">
        <ele>79.93</ele>
        <time>2021-07-04T12:57:25Z</time>
      </trkpt>
      <trkpt lat="44.14526" lon="-0.92259">
        <ele>79.45</ele>
        <time>2021-07-04T12:57:35Z</time>
      </trkpt>
      <trkpt lat="44.14528" lon="-0.92414">
        <ele>78.97</ele>
        <time>2021-07-04T12:57:43Z</time>
      </trkpt>
      <trkpt lat="44.14529" lon="-0.92505">
        <ele>77.52</ele>
        <time>2021-07-04T12:57:51Z</time>
      </trkpt>
      <trkpt lat="44.14529" lon="-0.92676">
        <ele>78.48</ele>
        <time>2021-07-04T12:58:00Z</time>
      </trkpt>
      <trkpt lat="44.14526" lon="-0.92938">
        <ele>80.41</ele>
        <time>2021-07-04T12:58:10Z</time>
      </trkpt>
      <trkpt lat="44.14519" lon="-0.93388">
        <ele>79.45</ele>
        <time>2021-07-04T12:58:25Z</time>
      </trkpt>
      <trkpt lat="44.14512" lon="-0.93826">
        <ele>78</ele>
        <time>2021-07-04T12:58:39Z</time>
      </trkpt>
      <trkpt lat="44.14501" lon="-0.94521">
        <ele>75.12</ele>
        <time>2021-07-04T12:59:01Z</time>
      </trkpt>
      <trkpt lat="44.14476" lon="-0.94921">
        <ele>75.12</ele>
        <time>2021-07-04T12:59:14Z</time>
      </trkpt>
      <trkpt lat="44.144" lon="-0.9536">
        <ele>75.12</ele>
        <time>2021-07-04T12:59:29Z</time>
      </trkpt>
      <trkpt lat="44.1439" lon="-0.95472">
        <ele>75.12</ele>
        <time>2021-07-04T12:59:33Z</time>
      </trkpt>
      <trkpt lat="44.14392" lon="-0.95528">
        <ele>74.64</ele>
        <time>2021-07-04T12:59:34Z</time>
      </trkpt>
      <trkpt lat="44.14426" lon="-0.95736">
        <ele>73.2</ele>
        <time>2021-07-04T12:59:42Z</time>
      </trkpt>
      <trkpt lat="44.14522" lon="-0.96187">
        <ele>77.52</ele>
        <time>2021-07-04T12:59:58Z</time>
      </trkpt>
      <trkpt lat="44.14585" lon="-0.96388">
        <ele>78.97</ele>
        <time>2021-07-04T13:00:07Z</time>
      </trkpt>
      <trkpt lat="44.14595" lon="-0.96423">
        <ele>78.48</ele>
        <time>2021-07-04T13:00:09Z</time>
      </trkpt>
      <trkpt lat="44.14597" lon="-0.96438">
        <ele>77.52</ele>
        <time>2021-07-04T13:00:10Z</time>
      </trkpt>
      <trkpt lat="44.14598" lon="-0.96455">
        <ele>76.56</ele>
        <time>2021-07-04T13:00:11Z</time>
      </trkpt>
      <trkpt lat="44.14598" lon="-0.9647">
        <ele>75.6</ele>
        <time>2021-07-04T13:00:12Z</time>
      </trkpt>
      <trkpt lat="44.14597" lon="-0.96487">
        <ele>74.64</ele>
        <time>2021-07-04T13:00:13Z</time>
      </trkpt>
      <trkpt lat="44.14593" lon="-0.96534">
        <ele>73.68</ele>
        <time>2021-07-04T13:00:16Z</time>
      </trkpt>
      <trkpt lat="44.14592" lon="-0.96548">
        <ele>73.2</ele>
        <time>2021-07-04T13:00:17Z</time>
      </trkpt>
      <trkpt lat="44.14592" lon="-0.9656">
        <ele>73.2</ele>
        <time>2021-07-04T13:00:18Z</time>
      </trkpt>
      <trkpt lat="44.14596" lon="-0.96567">
        <ele>73.68</ele>
        <time>2021-07-04T13:00:19Z</time>
      </trkpt>
      <trkpt lat="44.146" lon="-0.96574">
        <ele>74.64</ele>
        <time>2021-07-04T13:00:20Z</time>
      </trkpt>
      <trkpt lat="44.14604" lon="-0.96582">
        <ele>75.12</ele>
        <time>2021-07-04T13:00:21Z</time>
      </trkpt>
      <trkpt lat="44.14609" lon="-0.96588">
        <ele>75.6</ele>
        <time>2021-07-04T13:00:22Z</time>
      </trkpt>
      <trkpt lat="44.14616" lon="-0.96596">
        <ele>76.08</ele>
        <time>2021-07-04T13:00:23Z</time>
      </trkpt>
      <trkpt lat="44.1462" lon="-0.96615">
        <ele>76.56</ele>
        <time>2021-07-04T13:00:24Z</time>
      </trkpt>
      <trkpt lat="44.1462" lon="-0.96615">
        <ele>77.04</ele>
        <time>2021-07-04T13:00:25Z</time>
      </trkpt>
      <trkpt lat="44.14616" lon="-0.9663">
        <ele>77.04</ele>
        <time>2021-07-04T13:00:26Z</time>
      </trkpt>
      <trkpt lat="44.14616" lon="-0.9663">
        <ele>76.56</ele>
        <time>2021-07-04T13:00:27Z</time>
      </trkpt>
      <trkpt lat="44.14613" lon="-0.96651">
        <ele>76.56</ele>
        <time>2021-07-04T13:00:28Z</time>
      </trkpt>
      <trkpt lat="44.1462" lon="-0.96677">
        <ele>76.56</ele>
        <time>2021-07-04T13:00:29Z</time>
      </trkpt>
      <trkpt lat="44.14644" lon="-0.96826">
        <ele>79.93</ele>
        <time>2021-07-04T13:00:39Z</time>
      </trkpt>
      <trkpt lat="44.14671" lon="-0.96961">
        <ele>79.45</ele>
        <time>2021-07-04T13:00:48Z</time>
      </trkpt>
      <trkpt lat="44.14674" lon="-0.96967">
        <ele>79.93</ele>
        <time>2021-07-04T13:00:49Z</time>
      </trkpt>
      <trkpt lat="44.14674" lon="-0.96967">
        <ele>79.93</ele>
        <time>2021-07-04T13:00:50Z</time>
      </trkpt>
      <trkpt lat="44.14679" lon="-0.9697">
        <ele>79.45</ele>
        <time>2021-07-04T13:00:51Z</time>
      </trkpt>
      <trkpt lat="44.14682" lon="-0.96972">
        <ele>79.45</ele>
        <time>2021-07-04T13:00:52Z</time>
      </trkpt>
      <trkpt lat="44.14691" lon="-0.96969">
        <ele>79.45</ele>
        <time>2021-07-04T13:00:53Z</time>
      </trkpt>
      <trkpt lat="44.14698" lon="-0.96966">
        <ele>78.97</ele>
        <time>2021-07-04T13:00:54Z</time>
      </trkpt>
      <trkpt lat="44.14713" lon="-0.9696">
        <ele>78.97</ele>
        <time>2021-07-04T13:00:55Z</time>
      </trkpt>
      <trkpt lat="44.14713" lon="-0.9696">
        <ele>78.48</ele>
        <time>2021-07-04T13:00:56Z</time>
      </trkpt>
      <trkpt lat="44.14743" lon="-0.96929">
        <ele>78</ele>
        <time>2021-07-04T13:01:00Z</time>
      </trkpt>
      <trkpt lat="44.14757" lon="-0.9691">
        <ele>77.52</ele>
        <time>2021-07-04T13:01:01Z</time>
      </trkpt>
      <trkpt lat="44.14761" lon="-0.96896">
        <ele>76.56</ele>
        <time>2021-07-04T13:01:02Z</time>
      </trkpt>
      <trkpt lat="44.14761" lon="-0.96896">
        <ele>73.68</ele>
        <time>2021-07-04T13:01:03Z</time>
      </trkpt>
      <trkpt lat="44.14766" lon="-0.96882">
        <ele>72.24</ele>
        <time>2021-07-04T13:01:04Z</time>
      </trkpt>
      <trkpt lat="44.1477" lon="-0.96868">
        <ele>71.27</ele>
        <time>2021-07-04T13:01:05Z</time>
      </trkpt>
      <trkpt lat="44.14766" lon="-0.96855">
        <ele>70.79</ele>
        <time>2021-07-04T13:01:06Z</time>
      </trkpt>
      <trkpt lat="44.14762" lon="-0.96843">
        <ele>71.27</ele>
        <time>2021-07-04T13:01:07Z</time>
      </trkpt>
      <trkpt lat="44.14758" lon="-0.9683">
        <ele>72.72</ele>
        <time>2021-07-04T13:01:08Z</time>
      </trkpt>
      <trkpt lat="44.14755" lon="-0.96819">
        <ele>72.24</ele>
        <time>2021-07-04T13:01:09Z</time>
      </trkpt>
      <trkpt lat="44.14747" lon="-0.96811">
        <ele>71.27</ele>
        <time>2021-07-04T13:01:10Z</time>
      </trkpt>
      <trkpt lat="44.14738" lon="-0.96802">
        <ele>69.83</ele>
        <time>2021-07-04T13:01:11Z</time>
      </trkpt>
      <trkpt lat="44.1473" lon="-0.96794">
        <ele>68.87</ele>
        <time>2021-07-04T13:01:12Z</time>
      </trkpt>
      <trkpt lat="44.14719" lon="-0.96789">
        <ele>68.87</ele>
        <time>2021-07-04T13:01:13Z</time>
      </trkpt>
      <trkpt lat="44.14709" lon="-0.96787">
        <ele>68.39</ele>
        <time>2021-07-04T13:01:14Z</time>
      </trkpt>
      <trkpt lat="44.14698" lon="-0.96789">
        <ele>67.91</ele>
        <time>2021-07-04T13:01:15Z</time>
      </trkpt>
      <trkpt lat="44.14686" lon="-0.96794">
        <ele>68.87</ele>
        <time>2021-07-04T13:01:16Z</time>
      </trkpt>
      <trkpt lat="44.14674" lon="-0.96801">
        <ele>69.35</ele>
        <time>2021-07-04T13:01:17Z</time>
      </trkpt>
      <trkpt lat="44.14662" lon="-0.96807">
        <ele>68.87</ele>
        <time>2021-07-04T13:01:18Z</time>
      </trkpt>
      <trkpt lat="44.14517" lon="-0.96935">
        <ele>70.79</ele>
        <time>2021-07-04T13:01:27Z</time>
      </trkpt>
      <trkpt lat="44.14321" lon="-0.97066">
        <ele>72.24</ele>
        <time>2021-07-04T13:01:38Z</time>
      </trkpt>
      <trkpt lat="44.14089" lon="-0.97241">
        <ele>76.56</ele>
        <time>2021-07-04T13:01:49Z</time>
      </trkpt>
      <trkpt lat="44.1384" lon="-0.97516">
        <ele>74.64</ele>
        <time>2021-07-04T13:02:01Z</time>
      </trkpt>
      <trkpt lat="44.13512" lon="-0.97867">
        <ele>75.6</ele>
        <time>2021-07-04T13:02:16Z</time>
      </trkpt>
      <trkpt lat="44.13279" lon="-0.98026">
        <ele>75.12</ele>
        <time>2021-07-04T13:02:25Z</time>
      </trkpt>
      <trkpt lat="44.12942" lon="-0.98183">
        <ele>74.16</ele>
        <time>2021-07-04T13:02:37Z</time>
      </trkpt>
      <trkpt lat="44.12091" lon="-0.98553">
        <ele>75.12</ele>
        <time>2021-07-04T13:03:07Z</time>
      </trkpt>
      <trkpt lat="44.112" lon="-0.98942">
        <ele>74.64</ele>
        <time>2021-07-04T13:03:39Z</time>
      </trkpt>
      <trkpt lat="44.10472" lon="-0.99259">
        <ele>74.16</ele>
        <time>2021-07-04T13:04:04Z</time>
      </trkpt>
      <trkpt lat="44.09633" lon="-0.99624">
        <ele>72.24</ele>
        <time>2021-07-04T13:04:35Z</time>
      </trkpt>
      <trkpt lat="44.08804" lon="-0.99985">
        <ele>67.43</ele>
        <time>2021-07-04T13:05:05Z</time>
      </trkpt>
      <trkpt lat="44.08296" lon="-1.00204">
        <ele>69.35</ele>
        <time>2021-07-04T13:05:23Z</time>
      </trkpt>
      <trkpt lat="44.07635" lon="-1.00484">
        <ele>65.51</ele>
        <time>2021-07-04T13:05:46Z</time>
      </trkpt>
      <trkpt lat="44.07339" lon="-1.00545">
        <ele>67.43</ele>
        <time>2021-07-04T13:05:56Z</time>
      </trkpt>
      <trkpt lat="44.06839" lon="-1.00578">
        <ele>65.99</ele>
        <time>2021-07-04T13:06:13Z</time>
      </trkpt>
      <trkpt lat="44.06431" lon="-1.00588">
        <ele>69.83</ele>
        <time>2021-07-04T13:06:28Z</time>
      </trkpt>
      <trkpt lat="44.0599" lon="-1.00514">
        <ele>70.31</ele>
        <time>2021-07-04T13:06:44Z</time>
      </trkpt>
      <trkpt lat="44.05709" lon="-1.00503">
        <ele>69.35</ele>
        <time>2021-07-04T13:06:54Z</time>
      </trkpt>
      <trkpt lat="44.05487" lon="-1.00568">
        <ele>71.27</ele>
        <time>2021-07-04T13:07:02Z</time>
      </trkpt>
      <trkpt lat="44.05193" lon="-1.00738">
        <ele>69.83</ele>
        <time>2021-07-04T13:07:13Z</time>
      </trkpt>
      <trkpt lat="44.04483" lon="-1.01159">
        <ele>67.91</ele>
        <time>2021-07-04T13:07:39Z</time>
      </trkpt>
      <trkpt lat="44.03851" lon="-1.01534">
        <ele>73.2</ele>
        <time>2021-07-04T13:08:02Z</time>
      </trkpt>
      <trkpt lat="44.03544" lon="-1.01683">
        <ele>76.08</ele>
        <time>2021-07-04T13:08:13Z</time>
      </trkpt>
      <trkpt lat="44.03278" lon="-1.01717">
        <ele>75.12</ele>
        <time>2021-07-04T13:08:21Z</time>
      </trkpt>
      <trkpt lat="44.03065" lon="-1.01679">
        <ele>76.56</ele>
        <time>2021-07-04T13:08:29Z</time>
      </trkpt>
      <trkpt lat="44.02515" lon="-1.0155">
        <ele>78.48</ele>
        <time>2021-07-04T13:08:48Z</time>
      </trkpt>
      <trkpt lat="44.02281" lon="-1.0154">
        <ele>80.89</ele>
        <time>2021-07-04T13:08:56Z</time>
      </trkpt>
      <trkpt lat="44.0205" lon="-1.016">
        <ele>82.81</ele>
        <time>2021-07-04T13:09:04Z</time>
      </trkpt>
      <trkpt lat="44.01835" lon="-1.01726">
        <ele>83.77</ele>
        <time>2021-07-04T13:09:12Z</time>
      </trkpt>
      <trkpt lat="44.01591" lon="-1.01961">
        <ele>83.77</ele>
        <time>2021-07-04T13:09:22Z</time>
      </trkpt>
      <trkpt lat="44.01231" lon="-1.02274">
        <ele>84.73</ele>
        <time>2021-07-04T13:09:36Z</time>
      </trkpt>
      <trkpt lat="44.00476" lon="-1.02911">
        <ele>85.21</ele>
        <time>2021-07-04T13:10:05Z</time>
      </trkpt>
      <trkpt lat="43.99953" lon="-1.03353">
        <ele>86.66</ele>
        <time>2021-07-04T13:10:25Z</time>
      </trkpt>
      <trkpt lat="43.9928" lon="-1.03921">
        <ele>84.25</ele>
        <time>2021-07-04T13:10:51Z</time>
      </trkpt>
      <trkpt lat="43.98624" lon="-1.0447">
        <ele>86.18</ele>
        <time>2021-07-04T13:11:15Z</time>
      </trkpt>
      <trkpt lat="43.97993" lon="-1.0501">
        <ele>85.21</ele>
        <time>2021-07-04T13:11:40Z</time>
      </trkpt>
      <trkpt lat="43.97807" lon="-1.05237">
        <ele>84.25</ele>
        <time>2021-07-04T13:11:48Z</time>
      </trkpt>
      <trkpt lat="43.97664" lon="-1.05517">
        <ele>83.29</ele>
        <time>2021-07-04T13:11:56Z</time>
      </trkpt>
      <trkpt lat="43.97461" lon="-1.05948">
        <ele>83.29</ele>
        <time>2021-07-04T13:12:08Z</time>
      </trkpt>
      <trkpt lat="43.97252" lon="-1.06197">
        <ele>82.33</ele>
        <time>2021-07-04T13:12:16Z</time>
      </trkpt>
      <trkpt lat="43.97039" lon="-1.06353">
        <ele>82.81</ele>
        <time>2021-07-04T13:12:24Z</time>
      </trkpt>
      <trkpt lat="43.96837" lon="-1.06431">
        <ele>81.85</ele>
        <time>2021-07-04T13:12:32Z</time>
      </trkpt>
      <trkpt lat="43.96595" lon="-1.06459">
        <ele>79.93</ele>
        <time>2021-07-04T13:12:40Z</time>
      </trkpt>
      <trkpt lat="43.95979" lon="-1.0649">
        <ele>79.45</ele>
        <time>2021-07-04T13:13:00Z</time>
      </trkpt>
      <trkpt lat="43.95739" lon="-1.06573">
        <ele>82.33</ele>
        <time>2021-07-04T13:13:08Z</time>
      </trkpt>
      <trkpt lat="43.95517" lon="-1.0673">
        <ele>79.45</ele>
        <time>2021-07-04T13:13:16Z</time>
      </trkpt>
      <trkpt lat="43.95327" lon="-1.06952">
        <ele>78.48</ele>
        <time>2021-07-04T13:13:24Z</time>
      </trkpt>
      <trkpt lat="43.94631" lon="-1.07898">
        <ele>80.41</ele>
        <time>2021-07-04T13:13:55Z</time>
      </trkpt>
      <trkpt lat="43.93945" lon="-1.08838">
        <ele>78</ele>
        <time>2021-07-04T13:14:26Z</time>
      </trkpt>
      <trkpt lat="43.93351" lon="-1.09651">
        <ele>72.24</ele>
        <time>2021-07-04T13:14:53Z</time>
      </trkpt>
      <trkpt lat="43.92869" lon="-1.10311">
        <ele>71.76</ele>
        <time>2021-07-04T13:15:15Z</time>
      </trkpt>
      <trkpt lat="43.92233" lon="-1.11183">
        <ele>70.31</ele>
        <time>2021-07-04T13:15:44Z</time>
      </trkpt>
      <trkpt lat="43.91857" lon="-1.11635">
        <ele>69.35</ele>
        <time>2021-07-04T13:15:59Z</time>
      </trkpt>
      <trkpt lat="43.91586" lon="-1.11845">
        <ele>68.39</ele>
        <time>2021-07-04T13:16:10Z</time>
      </trkpt>
      <trkpt lat="43.90953" lon="-1.12325">
        <ele>64.55</ele>
        <time>2021-07-04T13:16:34Z</time>
      </trkpt>
      <trkpt lat="43.90249" lon="-1.12858">
        <ele>62.62</ele>
        <time>2021-07-04T13:17:01Z</time>
      </trkpt>
      <trkpt lat="43.8974" lon="-1.13247">
        <ele>59.26</ele>
        <time>2021-07-04T13:17:20Z</time>
      </trkpt>
      <trkpt lat="43.89486" lon="-1.13394">
        <ele>56.86</ele>
        <time>2021-07-04T13:17:29Z</time>
      </trkpt>
      <trkpt lat="43.89248" lon="-1.13445">
        <ele>55.41</ele>
        <time>2021-07-04T13:17:37Z</time>
      </trkpt>
      <trkpt lat="43.89004" lon="-1.13427">
        <ele>53.97</ele>
        <time>2021-07-04T13:17:45Z</time>
      </trkpt>
      <trkpt lat="43.88774" lon="-1.13342">
        <ele>50.13</ele>
        <time>2021-07-04T13:17:53Z</time>
      </trkpt>
      <trkpt lat="43.8836" lon="-1.13156">
        <ele>49.16</ele>
        <time>2021-07-04T13:18:07Z</time>
      </trkpt>
      <trkpt lat="43.88159" lon="-1.1311">
        <ele>50.13</ele>
        <time>2021-07-04T13:18:15Z</time>
      </trkpt>
      <trkpt lat="43.87904" lon="-1.13136">
        <ele>49.65</ele>
        <time>2021-07-04T13:18:23Z</time>
      </trkpt>
      <trkpt lat="43.8771" lon="-1.13208">
        <ele>51.57</ele>
        <time>2021-07-04T13:18:31Z</time>
      </trkpt>
      <trkpt lat="43.87512" lon="-1.13354">
        <ele>49.65</ele>
        <time>2021-07-04T13:18:39Z</time>
      </trkpt>
      <trkpt lat="43.87342" lon="-1.13543">
        <ele>52.05</ele>
        <time>2021-07-04T13:18:47Z</time>
      </trkpt>
      <trkpt lat="43.87189" lon="-1.13808">
        <ele>57.82</ele>
        <time>2021-07-04T13:18:55Z</time>
      </trkpt>
      <trkpt lat="43.87094" lon="-1.14078">
        <ele>60.7</ele>
        <time>2021-07-04T13:19:04Z</time>
      </trkpt>
      <trkpt lat="43.87029" lon="-1.14412">
        <ele>60.22</ele>
        <time>2021-07-04T13:19:13Z</time>
      </trkpt>
      <trkpt lat="43.86922" lon="-1.15171">
        <ele>62.14</ele>
        <time>2021-07-04T13:19:33Z</time>
      </trkpt>
      <trkpt lat="43.86821" lon="-1.15502">
        <ele>63.58</ele>
        <time>2021-07-04T13:19:41Z</time>
      </trkpt>
      <trkpt lat="43.86699" lon="-1.15736">
        <ele>65.03</ele>
        <time>2021-07-04T13:19:49Z</time>
      </trkpt>
      <trkpt lat="43.86524" lon="-1.1596">
        <ele>64.07</ele>
        <time>2021-07-04T13:19:57Z</time>
      </trkpt>
      <trkpt lat="43.86292" lon="-1.1615">
        <ele>63.58</ele>
        <time>2021-07-04T13:20:06Z</time>
      </trkpt>
      <trkpt lat="43.8577" lon="-1.16524">
        <ele>70.31</ele>
        <time>2021-07-04T13:20:25Z</time>
      </trkpt>
      <trkpt lat="43.85047" lon="-1.17012">
        <ele>70.79</ele>
        <time>2021-07-04T13:20:51Z</time>
      </trkpt>
      <trkpt lat="43.84507" lon="-1.17376">
        <ele>67.91</ele>
        <time>2021-07-04T13:21:11Z</time>
      </trkpt>
      <trkpt lat="43.84235" lon="-1.17557">
        <ele>68.39</ele>
        <time>2021-07-04T13:21:22Z</time>
      </trkpt>
      <trkpt lat="43.83863" lon="-1.1781">
        <ele>68.87</ele>
        <time>2021-07-04T13:21:38Z</time>
      </trkpt>
      <trkpt lat="43.83699" lon="-1.17922">
        <ele>69.35</ele>
        <time>2021-07-04T13:21:48Z</time>
      </trkpt>
      <trkpt lat="43.83554" lon="-1.18021">
        <ele>68.87</ele>
        <time>2021-07-04T13:21:58Z</time>
      </trkpt>
      <trkpt lat="43.83524" lon="-1.18042">
        <ele>69.35</ele>
        <time>2021-07-04T13:22:04Z</time>
      </trkpt>
      <trkpt lat="43.83513" lon="-1.18049">
        <ele>69.83</ele>
        <time>2021-07-04T13:22:14Z</time>
      </trkpt>
      <trkpt lat="43.83472" lon="-1.18075">
        <ele>68.87</ele>
        <time>2021-07-04T13:22:21Z</time>
      </trkpt>
      <trkpt lat="43.83377" lon="-1.18139">
        <ele>67.91</ele>
        <time>2021-07-04T13:22:29Z</time>
      </trkpt>
      <trkpt lat="43.83233" lon="-1.18237">
        <ele>67.91</ele>
        <time>2021-07-04T13:22:38Z</time>
      </trkpt>
      <trkpt lat="43.82965" lon="-1.18418">
        <ele>66.95</ele>
        <time>2021-07-04T13:22:51Z</time>
      </trkpt>
      <trkpt lat="43.82609" lon="-1.18658">
        <ele>65.51</ele>
        <time>2021-07-04T13:23:06Z</time>
      </trkpt>
      <trkpt lat="43.82081" lon="-1.19014">
        <ele>63.1</ele>
        <time>2021-07-04T13:23:27Z</time>
      </trkpt>
      <trkpt lat="43.8154" lon="-1.19379">
        <ele>59.26</ele>
        <time>2021-07-04T13:23:48Z</time>
      </trkpt>
      <trkpt lat="43.80774" lon="-1.19899">
        <ele>51.57</ele>
        <time>2021-07-04T13:24:17Z</time>
      </trkpt>
      <trkpt lat="43.80126" lon="-1.20331">
        <ele>46.76</ele>
        <time>2021-07-04T13:24:41Z</time>
      </trkpt>
      <trkpt lat="43.79356" lon="-1.20843">
        <ele>40.03</ele>
        <time>2021-07-04T13:25:09Z</time>
      </trkpt>
      <trkpt lat="43.79117" lon="-1.2093">
        <ele>34.74</ele>
        <time>2021-07-04T13:25:17Z</time>
      </trkpt>
      <trkpt lat="43.78865" lon="-1.20949">
        <ele>32.82</ele>
        <time>2021-07-04T13:25:25Z</time>
      </trkpt>
      <trkpt lat="43.78463" lon="-1.20941">
        <ele>28.98</ele>
        <time>2021-07-04T13:25:38Z</time>
      </trkpt>
      <trkpt lat="43.78194" lon="-1.21022">
        <ele>28.02</ele>
        <time>2021-07-04T13:25:46Z</time>
      </trkpt>
      <trkpt lat="43.7783" lon="-1.21159">
        <ele>32.82</ele>
        <time>2021-07-04T13:26:00Z</time>
      </trkpt>
      <trkpt lat="43.77656" lon="-1.21284">
        <ele>33.78</ele>
        <time>2021-07-04T13:26:07Z</time>
      </trkpt>
      <trkpt lat="43.77476" lon="-1.21487">
        <ele>31.86</ele>
        <time>2021-07-04T13:26:15Z</time>
      </trkpt>
      <trkpt lat="43.7722" lon="-1.21778">
        <ele>34.74</ele>
        <time>2021-07-04T13:26:26Z</time>
      </trkpt>
      <trkpt lat="43.77024" lon="-1.21915">
        <ele>40.03</ele>
        <time>2021-07-04T13:26:33Z</time>
      </trkpt>
      <trkpt lat="43.76751" lon="-1.22009">
        <ele>38.59</ele>
        <time>2021-07-04T13:26:41Z</time>
      </trkpt>
      <trkpt lat="43.75817" lon="-1.22216">
        <ele>36.67</ele>
        <time>2021-07-04T13:27:11Z</time>
      </trkpt>
      <trkpt lat="43.75018" lon="-1.22394">
        <ele>41.95</ele>
        <time>2021-07-04T13:27:37Z</time>
      </trkpt>
      <trkpt lat="43.74344" lon="-1.22544">
        <ele>44.84</ele>
        <time>2021-07-04T13:28:00Z</time>
      </trkpt>
      <trkpt lat="43.7383" lon="-1.22658">
        <ele>51.09</ele>
        <time>2021-07-04T13:28:17Z</time>
      </trkpt>
      <trkpt lat="43.734" lon="-1.22691">
        <ele>49.16</ele>
        <time>2021-07-04T13:28:31Z</time>
      </trkpt>
      <trkpt lat="43.72817" lon="-1.22724">
        <ele>50.61</ele>
        <time>2021-07-04T13:28:49Z</time>
      </trkpt>
      <trkpt lat="43.72288" lon="-1.22755">
        <ele>52.53</ele>
        <time>2021-07-04T13:29:07Z</time>
      </trkpt>
      <trkpt lat="43.71903" lon="-1.22778">
        <ele>52.53</ele>
        <time>2021-07-04T13:29:20Z</time>
      </trkpt>
      <trkpt lat="43.71456" lon="-1.22805">
        <ele>52.53</ele>
        <time>2021-07-04T13:29:36Z</time>
      </trkpt>
      <trkpt lat="43.71094" lon="-1.22825">
        <ele>51.09</ele>
        <time>2021-07-04T13:29:50Z</time>
      </trkpt>
      <trkpt lat="43.70719" lon="-1.22847">
        <ele>51.09</ele>
        <time>2021-07-04T13:30:04Z</time>
      </trkpt>
      <trkpt lat="43.7015" lon="-1.22881">
        <ele>49.16</ele>
        <time>2021-07-04T13:30:24Z</time>
      </trkpt>
      <trkpt lat="43.69831" lon="-1.2294">
        <ele>43.88</ele>
        <time>2021-07-04T13:30:35Z</time>
      </trkpt>
      <trkpt lat="43.69641" lon="-1.23052">
        <ele>41.47</ele>
        <time>2021-07-04T13:30:42Z</time>
      </trkpt>
      <trkpt lat="43.69466" lon="-1.23227">
        <ele>38.11</ele>
        <time>2021-07-04T13:30:49Z</time>
      </trkpt>
      <trkpt lat="43.69328" lon="-1.2346">
        <ele>36.19</ele>
        <time>2021-07-04T13:30:56Z</time>
      </trkpt>
      <trkpt lat="43.69215" lon="-1.2378">
        <ele>34.74</ele>
        <time>2021-07-04T13:31:04Z</time>
      </trkpt>
      <trkpt lat="43.69021" lon="-1.24344">
        <ele>31.86</ele>
        <time>2021-07-04T13:31:18Z</time>
      </trkpt>
      <trkpt lat="43.68836" lon="-1.24916">
        <ele>30.42</ele>
        <time>2021-07-04T13:31:32Z</time>
      </trkpt>
      <trkpt lat="43.68617" lon="-1.2568">
        <ele>27.53</ele>
        <time>2021-07-04T13:31:50Z</time>
      </trkpt>
      <trkpt lat="43.68404" lon="-1.26332">
        <ele>30.9</ele>
        <time>2021-07-04T13:32:06Z</time>
      </trkpt>
      <trkpt lat="43.68314" lon="-1.2676">
        <ele>33.78</ele>
        <time>2021-07-04T13:32:16Z</time>
      </trkpt>
      <trkpt lat="43.68269" lon="-1.27198">
        <ele>36.67</ele>
        <time>2021-07-04T13:32:26Z</time>
      </trkpt>
      <trkpt lat="43.68242" lon="-1.2785">
        <ele>41.47</ele>
        <time>2021-07-04T13:32:41Z</time>
      </trkpt>
      <trkpt lat="43.68186" lon="-1.28364">
        <ele>40.99</ele>
        <time>2021-07-04T13:32:53Z</time>
      </trkpt>
      <trkpt lat="43.68099" lon="-1.29012">
        <ele>37.63</ele>
        <time>2021-07-04T13:33:08Z</time>
      </trkpt>
      <trkpt lat="43.68074" lon="-1.29509">
        <ele>38.11</ele>
        <time>2021-07-04T13:33:19Z</time>
      </trkpt>
      <trkpt lat="43.68045" lon="-1.30058">
        <ele>35.71</ele>
        <time>2021-07-04T13:33:31Z</time>
      </trkpt>
      <trkpt lat="43.67969" lon="-1.30461">
        <ele>33.78</ele>
        <time>2021-07-04T13:33:40Z</time>
      </trkpt>
      <trkpt lat="43.67849" lon="-1.30837">
        <ele>31.86</ele>
        <time>2021-07-04T13:33:49Z</time>
      </trkpt>
      <trkpt lat="43.67689" lon="-1.3118">
        <ele>29.46</ele>
        <time>2021-07-04T13:33:58Z</time>
      </trkpt>
      <trkpt lat="43.67482" lon="-1.31488">
        <ele>28.5</ele>
        <time>2021-07-04T13:34:07Z</time>
      </trkpt>
      <trkpt lat="43.6715" lon="-1.31875">
        <ele>30.42</ele>
        <time>2021-07-04T13:34:20Z</time>
      </trkpt>
      <trkpt lat="43.66844" lon="-1.32153">
        <ele>30.9</ele>
        <time>2021-07-04T13:34:31Z</time>
      </trkpt>
      <trkpt lat="43.6632" lon="-1.3255">
        <ele>25.13</ele>
        <time>2021-07-04T13:34:49Z</time>
      </trkpt>
      <trkpt lat="43.65987" lon="-1.32856">
        <ele>22.73</ele>
        <time>2021-07-04T13:35:01Z</time>
      </trkpt>
      <trkpt lat="43.65685" lon="-1.33211">
        <ele>20.81</ele>
        <time>2021-07-04T13:35:13Z</time>
      </trkpt>
      <trkpt lat="43.65517" lon="-1.33476">
        <ele>13.12</ele>
        <time>2021-07-04T13:35:21Z</time>
      </trkpt>
      <trkpt lat="43.65391" lon="-1.33787">
        <ele>9.75</ele>
        <time>2021-07-04T13:35:29Z</time>
      </trkpt>
      <trkpt lat="43.65298" lon="-1.3417">
        <ele>7.35</ele>
        <time>2021-07-04T13:35:38Z</time>
      </trkpt>
      <trkpt lat="43.65201" lon="-1.34507">
        <ele>7.35</ele>
        <time>2021-07-04T13:35:46Z</time>
      </trkpt>
      <trkpt lat="43.65047" lon="-1.34851">
        <ele>11.19</ele>
        <time>2021-07-04T13:35:55Z</time>
      </trkpt>
      <trkpt lat="43.64951" lon="-1.35131">
        <ele>10.23</ele>
        <time>2021-07-04T13:36:02Z</time>
      </trkpt>
      <trkpt lat="43.64898" lon="-1.35426">
        <ele>4.94</ele>
        <time>2021-07-04T13:36:09Z</time>
      </trkpt>
      <trkpt lat="43.64896" lon="-1.35814">
        <ele>2.54</ele>
        <time>2021-07-04T13:36:17Z</time>
      </trkpt>
      <trkpt lat="43.64889" lon="-1.36162">
        <ele>6.87</ele>
        <time>2021-07-04T13:36:26Z</time>
      </trkpt>
      <trkpt lat="43.64828" lon="-1.36498">
        <ele>8.79</ele>
        <time>2021-07-04T13:36:34Z</time>
      </trkpt>
      <trkpt lat="43.64728" lon="-1.3677">
        <ele>8.79</ele>
        <time>2021-07-04T13:36:41Z</time>
      </trkpt>
      <trkpt lat="43.64555" lon="-1.37081">
        <ele>5.42</ele>
        <time>2021-07-04T13:36:50Z</time>
      </trkpt>
      <trkpt lat="43.64329" lon="-1.37507">
        <ele>2.54</ele>
        <time>2021-07-04T13:37:02Z</time>
      </trkpt>
      <trkpt lat="43.6407" lon="-1.38054">
        <ele>3.98</ele>
        <time>2021-07-04T13:37:17Z</time>
      </trkpt>
      <trkpt lat="43.63858" lon="-1.38372">
        <ele>6.87</ele>
        <time>2021-07-04T13:37:27Z</time>
      </trkpt>
      <trkpt lat="43.63483" lon="-1.38819">
        <ele>9.75</ele>
        <time>2021-07-04T13:37:43Z</time>
      </trkpt>
      <trkpt lat="43.63173" lon="-1.39183">
        <ele>11.67</ele>
        <time>2021-07-04T13:37:57Z</time>
      </trkpt>
      <trkpt lat="43.62856" lon="-1.39557">
        <ele>12.63</ele>
        <time>2021-07-04T13:38:13Z</time>
      </trkpt>
      <trkpt lat="43.62635" lon="-1.39826">
        <ele>12.15</ele>
        <time>2021-07-04T13:38:25Z</time>
      </trkpt>
      <trkpt lat="43.62528" lon="-1.39948">
        <ele>11.19</ele>
        <time>2021-07-04T13:38:34Z</time>
      </trkpt>
      <trkpt lat="43.62449" lon="-1.40034">
        <ele>11.67</ele>
        <time>2021-07-04T13:38:42Z</time>
      </trkpt>
      <trkpt lat="43.62416" lon="-1.40069">
        <ele>12.63</ele>
        <time>2021-07-04T13:38:49Z</time>
      </trkpt>
      <trkpt lat="43.62405" lon="-1.40079">
        <ele>11.19</ele>
        <time>2021-07-04T13:38:57Z</time>
      </trkpt>
      <trkpt lat="43.62369" lon="-1.40114">
        <ele>11.19</ele>
        <time>2021-07-04T13:39:03Z</time>
      </trkpt>
      <trkpt lat="43.62292" lon="-1.40188">
        <ele>10.23</ele>
        <time>2021-07-04T13:39:10Z</time>
      </trkpt>
      <trkpt lat="43.62152" lon="-1.40327">
        <ele>11.19</ele>
        <time>2021-07-04T13:39:18Z</time>
      </trkpt>
      <trkpt lat="43.61954" lon="-1.40547">
        <ele>12.15</ele>
        <time>2021-07-04T13:39:30Z</time>
      </trkpt>
      <trkpt lat="43.61759" lon="-1.40834">
        <ele>12.63</ele>
        <time>2021-07-04T13:39:41Z</time>
      </trkpt>
      <trkpt lat="43.61545" lon="-1.41142">
        <ele>17.44</ele>
        <time>2021-07-04T13:39:51Z</time>
      </trkpt>
      <trkpt lat="43.61372" lon="-1.41302">
        <ele>16.96</ele>
        <time>2021-07-04T13:39:59Z</time>
      </trkpt>
      <trkpt lat="43.61144" lon="-1.41424">
        <ele>14.08</ele>
        <time>2021-07-04T13:40:07Z</time>
      </trkpt>
      <trkpt lat="43.60652" lon="-1.416">
        <ele>19.84</ele>
        <time>2021-07-04T13:40:24Z</time>
      </trkpt>
      <trkpt lat="43.60386" lon="-1.41627">
        <ele>21.77</ele>
        <time>2021-07-04T13:40:33Z</time>
      </trkpt>
      <trkpt lat="43.6013" lon="-1.41588">
        <ele>18.88</ele>
        <time>2021-07-04T13:40:42Z</time>
      </trkpt>
      <trkpt lat="43.59835" lon="-1.41555">
        <ele>20.32</ele>
        <time>2021-07-04T13:40:52Z</time>
      </trkpt>
      <trkpt lat="43.59567" lon="-1.4159">
        <ele>16.48</ele>
        <time>2021-07-04T13:41:01Z</time>
      </trkpt>
      <trkpt lat="43.593" lon="-1.41685">
        <ele>13.12</ele>
        <time>2021-07-04T13:41:10Z</time>
      </trkpt>
      <trkpt lat="43.58879" lon="-1.41924">
        <ele>14.08</ele>
        <time>2021-07-04T13:41:25Z</time>
      </trkpt>
      <trkpt lat="43.58557" lon="-1.42038">
        <ele>12.63</ele>
        <time>2021-07-04T13:41:35Z</time>
      </trkpt>
      <trkpt lat="43.58267" lon="-1.42145">
        <ele>8.79</ele>
        <time>2021-07-04T13:41:46Z</time>
      </trkpt>
      <trkpt lat="43.57989" lon="-1.42316">
        <ele>14.56</ele>
        <time>2021-07-04T13:41:56Z</time>
      </trkpt>
      <trkpt lat="43.57736" lon="-1.42548">
        <ele>18.88</ele>
        <time>2021-07-04T13:42:06Z</time>
      </trkpt>
      <trkpt lat="43.57478" lon="-1.42812">
        <ele>28.02</ele>
        <time>2021-07-04T13:42:17Z</time>
      </trkpt>
      <trkpt lat="43.57244" lon="-1.42973">
        <ele>36.19</ele>
        <time>2021-07-04T13:42:26Z</time>
      </trkpt>
      <trkpt lat="43.56992" lon="-1.43055">
        <ele>42.92</ele>
        <time>2021-07-04T13:42:35Z</time>
      </trkpt>
      <trkpt lat="43.56643" lon="-1.43093">
        <ele>37.15</ele>
        <time>2021-07-04T13:42:47Z</time>
      </trkpt>
      <trkpt lat="43.56344" lon="-1.43049">
        <ele>32.34</ele>
        <time>2021-07-04T13:42:57Z</time>
      </trkpt>
      <trkpt lat="43.56082" lon="-1.43047">
        <ele>35.23</ele>
        <time>2021-07-04T13:43:06Z</time>
      </trkpt>
      <trkpt lat="43.55855" lon="-1.43104">
        <ele>41.47</ele>
        <time>2021-07-04T13:43:14Z</time>
      </trkpt>
      <trkpt lat="43.5555" lon="-1.43212">
        <ele>49.65</ele>
        <time>2021-07-04T13:43:25Z</time>
      </trkpt>
      <trkpt lat="43.55236" lon="-1.43245">
        <ele>49.16</ele>
        <time>2021-07-04T13:43:36Z</time>
      </trkpt>
      <trkpt lat="43.54798" lon="-1.43255">
        <ele>34.74</ele>
        <time>2021-07-04T13:43:51Z</time>
      </trkpt>
      <trkpt lat="43.54415" lon="-1.43163">
        <ele>17.44</ele>
        <time>2021-07-04T13:44:03Z</time>
      </trkpt>
      <trkpt lat="43.54236" lon="-1.43162">
        <ele>12.63</ele>
        <time>2021-07-04T13:44:10Z</time>
      </trkpt>
      <trkpt lat="43.53915" lon="-1.43199">
        <ele>12.15</ele>
        <time>2021-07-04T13:44:21Z</time>
      </trkpt>
      <trkpt lat="43.5366" lon="-1.43159">
        <ele>9.75</ele>
        <time>2021-07-04T13:44:29Z</time>
      </trkpt>
      <trkpt lat="43.5346" lon="-1.43131">
        <ele>11.19</ele>
        <time>2021-07-04T13:44:37Z</time>
      </trkpt>
      <trkpt lat="43.53293" lon="-1.43168">
        <ele>10.71</ele>
        <time>2021-07-04T13:44:43Z</time>
      </trkpt>
      <trkpt lat="43.53137" lon="-1.43268">
        <ele>9.75</ele>
        <time>2021-07-04T13:44:49Z</time>
      </trkpt>
      <trkpt lat="43.52959" lon="-1.43463">
        <ele>19.36</ele>
        <time>2021-07-04T13:44:57Z</time>
      </trkpt>
      <trkpt lat="43.52748" lon="-1.43753">
        <ele>35.71</ele>
        <time>2021-07-04T13:45:08Z</time>
      </trkpt>
      <trkpt lat="43.52574" lon="-1.43919">
        <ele>40.03</ele>
        <time>2021-07-04T13:45:16Z</time>
      </trkpt>
      <trkpt lat="43.52351" lon="-1.44069">
        <ele>33.3</ele>
        <time>2021-07-04T13:45:25Z</time>
      </trkpt>
      <trkpt lat="43.52056" lon="-1.44189">
        <ele>25.61</ele>
        <time>2021-07-04T13:45:35Z</time>
      </trkpt>
      <trkpt lat="43.51783" lon="-1.44244">
        <ele>18.4</ele>
        <time>2021-07-04T13:45:46Z</time>
      </trkpt>
      <trkpt lat="43.51558" lon="-1.44304">
        <ele>11.19</ele>
        <time>2021-07-04T13:45:54Z</time>
      </trkpt>
      <trkpt lat="43.51308" lon="-1.44371">
        <ele>17.44</ele>
        <time>2021-07-04T13:46:03Z</time>
      </trkpt>
      <trkpt lat="43.51084" lon="-1.44347">
        <ele>16</ele>
        <time>2021-07-04T13:46:11Z</time>
      </trkpt>
      <trkpt lat="43.509" lon="-1.4426">
        <ele>14.56</ele>
        <time>2021-07-04T13:46:18Z</time>
      </trkpt>
      <trkpt lat="43.50647" lon="-1.44078">
        <ele>13.6</ele>
        <time>2021-07-04T13:46:28Z</time>
      </trkpt>
      <trkpt lat="43.50483" lon="-1.44019">
        <ele>13.12</ele>
        <time>2021-07-04T13:46:34Z</time>
      </trkpt>
      <trkpt lat="43.50284" lon="-1.44017">
        <ele>12.63</ele>
        <time>2021-07-04T13:46:41Z</time>
      </trkpt>
      <trkpt lat="43.50101" lon="-1.44084">
        <ele>6.39</ele>
        <time>2021-07-04T13:46:48Z</time>
      </trkpt>
      <trkpt lat="43.49936" lon="-1.44217">
        <ele>3.5</ele>
        <time>2021-07-04T13:46:55Z</time>
      </trkpt>
      <trkpt lat="43.49802" lon="-1.44401">
        <ele>0.62</ele>
        <time>2021-07-04T13:47:02Z</time>
      </trkpt>
      <trkpt lat="43.49625" lon="-1.44694">
        <ele>3.5</ele>
        <time>2021-07-04T13:47:12Z</time>
      </trkpt>
      <trkpt lat="43.49483" lon="-1.44836">
        <ele>7.35</ele>
        <time>2021-07-04T13:47:19Z</time>
      </trkpt>
      <trkpt lat="43.49326" lon="-1.44944">
        <ele>5.42</ele>
        <time>2021-07-04T13:47:28Z</time>
      </trkpt>
      <trkpt lat="43.49195" lon="-1.44992">
        <ele>0.62</ele>
        <time>2021-07-04T13:47:37Z</time>
      </trkpt>
      <trkpt lat="43.49161" lon="-1.4501">
        <ele>-2.75</ele>
        <time>2021-07-04T13:47:40Z</time>
      </trkpt>
      <trkpt lat="43.49152" lon="-1.45017">
        <ele>-4.19</ele>
        <time>2021-07-04T13:47:41Z</time>
      </trkpt>
      <trkpt lat="43.49144" lon="-1.45025">
        <ele>-4.67</ele>
        <time>2021-07-04T13:47:42Z</time>
      </trkpt>
      <trkpt lat="43.49139" lon="-1.45033">
        <ele>-2.75</ele>
        <time>2021-07-04T13:47:43Z</time>
      </trkpt>
      <trkpt lat="43.49133" lon="-1.45046">
        <ele>-1.79</ele>
        <time>2021-07-04T13:47:44Z</time>
      </trkpt>
      <trkpt lat="43.49128" lon="-1.45057">
        <ele>-0.34</ele>
        <time>2021-07-04T13:47:45Z</time>
      </trkpt>
      <trkpt lat="43.49124" lon="-1.45072">
        <ele>-0.34</ele>
        <time>2021-07-04T13:47:46Z</time>
      </trkpt>
      <trkpt lat="43.4912" lon="-1.45088">
        <ele>0.62</ele>
        <time>2021-07-04T13:47:47Z</time>
      </trkpt>
      <trkpt lat="43.49116" lon="-1.45288">
        <ele>3.02</ele>
        <time>2021-07-04T13:47:59Z</time>
      </trkpt>
      <trkpt lat="43.49124" lon="-1.45328">
        <ele>2.54</ele>
        <time>2021-07-04T13:48:07Z</time>
      </trkpt>
      <trkpt lat="43.49127" lon="-1.45334">
        <ele>2.54</ele>
        <time>2021-07-04T13:48:08Z</time>
      </trkpt>
      <trkpt lat="43.49136" lon="-1.45349">
        <ele>2.06</ele>
        <time>2021-07-04T13:48:10Z</time>
      </trkpt>
      <trkpt lat="43.49141" lon="-1.45357">
        <ele>1.58</ele>
        <time>2021-07-04T13:48:11Z</time>
      </trkpt>
      <trkpt lat="43.49141" lon="-1.45357">
        <ele>1.58</ele>
        <time>2021-07-04T13:48:12Z</time>
      </trkpt>
      <trkpt lat="43.49144" lon="-1.45365">
        <ele>2.06</ele>
        <time>2021-07-04T13:48:13Z</time>
      </trkpt>
      <trkpt lat="43.49143" lon="-1.45377">
        <ele>2.06</ele>
        <time>2021-07-04T13:48:14Z</time>
      </trkpt>
      <trkpt lat="43.49143" lon="-1.45387">
        <ele>2.06</ele>
        <time>2021-07-04T13:48:15Z</time>
      </trkpt>
      <trkpt lat="43.49142" lon="-1.45397">
        <ele>2.06</ele>
        <time>2021-07-04T13:48:16Z</time>
      </trkpt>
      <trkpt lat="43.49135" lon="-1.45402">
        <ele>1.1</ele>
        <time>2021-07-04T13:48:17Z</time>
      </trkpt>
      <trkpt lat="43.4913" lon="-1.45407">
        <ele>1.1</ele>
        <time>2021-07-04T13:48:18Z</time>
      </trkpt>
      <trkpt lat="43.49124" lon="-1.45411">
        <ele>1.1</ele>
        <time>2021-07-04T13:48:19Z</time>
      </trkpt>
      <trkpt lat="43.49118" lon="-1.45412">
        <ele>1.1</ele>
        <time>2021-07-04T13:48:20Z</time>
      </trkpt>
      <trkpt lat="43.49111" lon="-1.45412">
        <ele>1.1</ele>
        <time>2021-07-04T13:48:21Z</time>
      </trkpt>
      <trkpt lat="43.49102" lon="-1.4542">
        <ele>0.14</ele>
        <time>2021-07-04T13:48:22Z</time>
      </trkpt>
      <trkpt lat="43.49096" lon="-1.45426">
        <ele>0.14</ele>
        <time>2021-07-04T13:48:23Z</time>
      </trkpt>
      <trkpt lat="43.49089" lon="-1.45433">
        <ele>0.14</ele>
        <time>2021-07-04T13:48:24Z</time>
      </trkpt>
      <trkpt lat="43.49081" lon="-1.45441">
        <ele>0.14</ele>
        <time>2021-07-04T13:48:25Z</time>
      </trkpt>
      <trkpt lat="43.49074" lon="-1.4545">
        <ele>0.14</ele>
        <time>2021-07-04T13:48:26Z</time>
      </trkpt>
      <trkpt lat="43.48998" lon="-1.45596">
        <ele>-1.3</ele>
        <time>2021-07-04T13:48:36Z</time>
      </trkpt>
      <trkpt lat="43.4889" lon="-1.45812">
        <ele>4.46</ele>
        <time>2021-07-04T13:48:48Z</time>
      </trkpt>
      <trkpt lat="43.4879" lon="-1.4606">
        <ele>8.79</ele>
        <time>2021-07-04T13:49:01Z</time>
      </trkpt>
      <trkpt lat="43.48702" lon="-1.46277">
        <ele>10.71</ele>
        <time>2021-07-04T13:49:14Z</time>
      </trkpt>
      <trkpt lat="43.48628" lon="-1.46512">
        <ele>19.36</ele>
        <time>2021-07-04T13:49:26Z</time>
      </trkpt>
      <trkpt lat="43.48627" lon="-1.46645">
        <ele>21.77</ele>
        <time>2021-07-04T13:49:33Z</time>
      </trkpt>
      <trkpt lat="43.48632" lon="-1.46664">
        <ele>21.77</ele>
        <time>2021-07-04T13:49:34Z</time>
      </trkpt>
      <trkpt lat="43.48636" lon="-1.46682">
        <ele>21.77</ele>
        <time>2021-07-04T13:49:35Z</time>
      </trkpt>
      <trkpt lat="43.48672" lon="-1.46795">
        <ele>21.29</ele>
        <time>2021-07-04T13:49:43Z</time>
      </trkpt>
      <trkpt lat="43.4869" lon="-1.4686">
        <ele>17.92</ele>
        <time>2021-07-04T13:49:49Z</time>
      </trkpt>
      <trkpt lat="43.4869" lon="-1.4686">
        <ele>17.92</ele>
        <time>2021-07-04T13:49:50Z</time>
      </trkpt>
      <trkpt lat="43.48692" lon="-1.46868">
        <ele>17.44</ele>
        <time>2021-07-04T13:49:51Z</time>
      </trkpt>
      <trkpt lat="43.48709" lon="-1.46876">
        <ele>17.44</ele>
        <time>2021-07-04T13:49:52Z</time>
      </trkpt>
      <trkpt lat="43.48709" lon="-1.46876">
        <ele>16.96</ele>
        <time>2021-07-04T13:49:53Z</time>
      </trkpt>
      <trkpt lat="43.48712" lon="-1.46885">
        <ele>16.48</ele>
        <time>2021-07-04T13:49:54Z</time>
      </trkpt>
      <trkpt lat="43.48715" lon="-1.46902">
        <ele>16</ele>
        <time>2021-07-04T13:49:55Z</time>
      </trkpt>
      <trkpt lat="43.48715" lon="-1.46902">
        <ele>15.52</ele>
        <time>2021-07-04T13:49:56Z</time>
      </trkpt>
      <trkpt lat="43.48709" lon="-1.46911">
        <ele>16</ele>
        <time>2021-07-04T13:49:57Z</time>
      </trkpt>
      <trkpt lat="43.48705" lon="-1.4692">
        <ele>15.52</ele>
        <time>2021-07-04T13:49:58Z</time>
      </trkpt>
      <trkpt lat="43.48702" lon="-1.4693">
        <ele>15.52</ele>
        <time>2021-07-04T13:49:59Z</time>
      </trkpt>
      <trkpt lat="43.48699" lon="-1.4694">
        <ele>15.04</ele>
        <time>2021-07-04T13:50:00Z</time>
      </trkpt>
      <trkpt lat="43.48696" lon="-1.4695">
        <ele>14.56</ele>
        <time>2021-07-04T13:50:01Z</time>
      </trkpt>
      <trkpt lat="43.48654" lon="-1.47076">
        <ele>7.83</ele>
        <time>2021-07-04T13:50:10Z</time>
      </trkpt>
      <trkpt lat="43.48593" lon="-1.4719">
        <ele>5.42</ele>
        <time>2021-07-04T13:50:18Z</time>
      </trkpt>
      <trkpt lat="43.48589" lon="-1.47206">
        <ele>5.91</ele>
        <time>2021-07-04T13:50:19Z</time>
      </trkpt>
      <trkpt lat="43.4858" lon="-1.47239">
        <ele>6.39</ele>
        <time>2021-07-04T13:50:20Z</time>
      </trkpt>
      <trkpt lat="43.4858" lon="-1.47257">
        <ele>6.87</ele>
        <time>2021-07-04T13:50:21Z</time>
      </trkpt>
      <trkpt lat="43.4858" lon="-1.47257">
        <ele>7.83</ele>
        <time>2021-07-04T13:50:22Z</time>
      </trkpt>
      <trkpt lat="43.4858" lon="-1.47275">
        <ele>8.31</ele>
        <time>2021-07-04T13:50:23Z</time>
      </trkpt>
      <trkpt lat="43.48582" lon="-1.47294">
        <ele>7.83</ele>
        <time>2021-07-04T13:50:24Z</time>
      </trkpt>
      <trkpt lat="43.48617" lon="-1.4757">
        <ele>9.27</ele>
        <time>2021-07-04T13:50:38Z</time>
      </trkpt>
      <trkpt lat="43.48637" lon="-1.47699">
        <ele>9.75</ele>
        <time>2021-07-04T13:50:46Z</time>
      </trkpt>
      <trkpt lat="43.48641" lon="-1.47712">
        <ele>10.23</ele>
        <time>2021-07-04T13:50:47Z</time>
      </trkpt>
      <trkpt lat="43.48649" lon="-1.47736">
        <ele>11.19</ele>
        <time>2021-07-04T13:50:48Z</time>
      </trkpt>
      <trkpt lat="43.48656" lon="-1.47757">
        <ele>12.15</ele>
        <time>2021-07-04T13:50:51Z</time>
      </trkpt>
      <trkpt lat="43.48661" lon="-1.47779">
        <ele>12.15</ele>
        <time>2021-07-04T13:50:52Z</time>
      </trkpt>
      <trkpt lat="43.48661" lon="-1.47779">
        <ele>12.63</ele>
        <time>2021-07-04T13:50:53Z</time>
      </trkpt>
      <trkpt lat="43.48663" lon="-1.47791">
        <ele>12.63</ele>
        <time>2021-07-04T13:50:54Z</time>
      </trkpt>
      <trkpt lat="43.48665" lon="-1.47805">
        <ele>13.12</ele>
        <time>2021-07-04T13:50:55Z</time>
      </trkpt>
      <trkpt lat="43.48664" lon="-1.47832">
        <ele>12.63</ele>
        <time>2021-07-04T13:50:56Z</time>
      </trkpt>
      <trkpt lat="43.48663" lon="-1.47846">
        <ele>12.63</ele>
        <time>2021-07-04T13:50:57Z</time>
      </trkpt>
      <trkpt lat="43.48663" lon="-1.47846">
        <ele>12.15</ele>
        <time>2021-07-04T13:50:58Z</time>
      </trkpt>
      <trkpt lat="43.48658" lon="-1.47918">
        <ele>11.67</ele>
        <time>2021-07-04T13:51:03Z</time>
      </trkpt>
      <trkpt lat="43.48657" lon="-1.47933">
        <ele>12.15</ele>
        <time>2021-07-04T13:51:04Z</time>
      </trkpt>
      <trkpt lat="43.48659" lon="-1.47948">
        <ele>11.67</ele>
        <time>2021-07-04T13:51:05Z</time>
      </trkpt>
      <trkpt lat="43.48662" lon="-1.47963">
        <ele>11.67</ele>
        <time>2021-07-04T13:51:06Z</time>
      </trkpt>
      <trkpt lat="43.48665" lon="-1.47976">
        <ele>11.19</ele>
        <time>2021-07-04T13:51:07Z</time>
      </trkpt>
      <trkpt lat="43.48669" lon="-1.47989">
        <ele>10.71</ele>
        <time>2021-07-04T13:51:08Z</time>
      </trkpt>
      <trkpt lat="43.48684" lon="-1.48011">
        <ele>11.19</ele>
        <time>2021-07-04T13:51:09Z</time>
      </trkpt>
      <trkpt lat="43.48692" lon="-1.48022">
        <ele>11.19</ele>
        <time>2021-07-04T13:51:10Z</time>
      </trkpt>
      <trkpt lat="43.48698" lon="-1.48033">
        <ele>12.15</ele>
        <time>2021-07-04T13:51:12Z</time>
      </trkpt>
      <trkpt lat="43.48704" lon="-1.48045">
        <ele>13.12</ele>
        <time>2021-07-04T13:51:13Z</time>
      </trkpt>
      <trkpt lat="43.4874" lon="-1.48114">
        <ele>15.52</ele>
        <time>2021-07-04T13:51:19Z</time>
      </trkpt>
      <trkpt lat="43.48745" lon="-1.48121">
        <ele>15.52</ele>
        <time>2021-07-04T13:51:20Z</time>
      </trkpt>
      <trkpt lat="43.48751" lon="-1.48129">
        <ele>15.52</ele>
        <time>2021-07-04T13:51:21Z</time>
      </trkpt>
      <trkpt lat="43.48756" lon="-1.48134">
        <ele>15.52</ele>
        <time>2021-07-04T13:51:22Z</time>
      </trkpt>
      <trkpt lat="43.48761" lon="-1.48138">
        <ele>15.52</ele>
        <time>2021-07-04T13:51:23Z</time>
      </trkpt>
      <trkpt lat="43.48766" lon="-1.48141">
        <ele>15.52</ele>
        <time>2021-07-04T13:51:24Z</time>
      </trkpt>
      <trkpt lat="43.48797" lon="-1.48158">
        <ele>13.6</ele>
        <time>2021-07-04T13:51:36Z</time>
      </trkpt>
      <trkpt lat="43.48815" lon="-1.48126">
        <ele>10.23</ele>
        <time>2021-07-04T13:51:45Z</time>
      </trkpt>
      <trkpt lat="43.48826" lon="-1.48097">
        <ele>9.27</ele>
        <time>2021-07-04T13:51:52Z</time>
      </trkpt>
      <trkpt lat="43.48832" lon="-1.48067">
        <ele>8.31</ele>
        <time>2021-07-04T13:52:00Z</time>
      </trkpt>
      <trkpt lat="43.48837" lon="-1.48046">
        <ele>8.31</ele>
        <time>2021-07-04T13:52:03Z</time>
      </trkpt>
      <trkpt lat="43.48841" lon="-1.48025">
        <ele>7.83</ele>
        <time>2021-07-04T13:52:05Z</time>
      </trkpt>
      <trkpt lat="43.48851" lon="-1.47976">
        <ele>6.87</ele>
        <time>2021-07-04T13:52:13Z</time>
      </trkpt>
      <trkpt lat="43.48853" lon="-1.47964">
        <ele>6.87</ele>
        <time>2021-07-04T13:52:15Z</time>
      </trkpt>
      <trkpt lat="43.48854" lon="-1.47957">
        <ele>6.39</ele>
        <time>2021-07-04T13:52:16Z</time>
      </trkpt>
      <trkpt lat="43.48854" lon="-1.4795">
        <ele>6.39</ele>
        <time>2021-07-04T13:52:17Z</time>
      </trkpt>
      <trkpt lat="43.48848" lon="-1.47894">
        <ele>5.91</ele>
        <time>2021-07-04T13:52:28Z</time>
      </trkpt>
      <trkpt lat="43.48838" lon="-1.47835">
        <ele>5.42</ele>
        <time>2021-07-04T13:52:39Z</time>
      </trkpt>
      <trkpt lat="43.48838" lon="-1.47835">
        <ele>5.42</ele>
        <time>2021-07-04T13:52:40Z</time>
      </trkpt>
      <trkpt lat="43.48846" lon="-1.47826">
        <ele>5.91</ele>
        <time>2021-07-04T13:52:41Z</time>
      </trkpt>
      <trkpt lat="43.48848" lon="-1.47827">
        <ele>6.87</ele>
        <time>2021-07-04T13:52:42Z</time>
      </trkpt>
      <trkpt lat="43.4885" lon="-1.4783">
        <ele>7.35</ele>
        <time>2021-07-04T13:52:43Z</time>
      </trkpt>
      <trkpt lat="43.48856" lon="-1.47836">
        <ele>7.83</ele>
        <time>2021-07-04T13:52:44Z</time>
      </trkpt>
      <trkpt lat="43.48896" lon="-1.47891">
        <ele>14.08</ele>
        <time>2021-07-04T13:52:56Z</time>
      </trkpt>
      <trkpt lat="43.48935" lon="-1.47932">
        <ele>17.44</ele>
        <time>2021-07-04T13:53:07Z</time>
      </trkpt>
      <trkpt lat="43.48939" lon="-1.47933">
        <ele>17.44</ele>
        <time>2021-07-04T13:53:08Z</time>
      </trkpt>
      <trkpt lat="43.49029" lon="-1.47906">
        <ele>14.08</ele>
        <time>2021-07-04T13:53:21Z</time>
      </trkpt>
      <trkpt lat="43.49112" lon="-1.47873">
        <ele>11.67</ele>
        <time>2021-07-04T13:53:35Z</time>
      </trkpt>
      <trkpt lat="43.49141" lon="-1.47859">
        <ele>10.71</ele>
        <time>2021-07-04T13:53:40Z</time>
      </trkpt>
      <trkpt lat="43.49159" lon="-1.4785">
        <ele>8.79</ele>
        <time>2021-07-04T13:53:44Z</time>
      </trkpt>
      <trkpt lat="43.49189" lon="-1.4784">
        <ele>6.87</ele>
        <time>2021-07-04T13:53:49Z</time>
      </trkpt>
      <trkpt lat="43.49189" lon="-1.4784">
        <ele>6.87</ele>
        <time>2021-07-04T13:53:50Z</time>
      </trkpt>
      <trkpt lat="43.49193" lon="-1.47839">
        <ele>6.87</ele>
        <time>2021-07-04T13:53:51Z</time>
      </trkpt>
      <trkpt lat="43.49203" lon="-1.47847">
        <ele>6.39</ele>
        <time>2021-07-04T13:53:52Z</time>
      </trkpt>
      <trkpt lat="43.49207" lon="-1.47851">
        <ele>4.94</ele>
        <time>2021-07-04T13:53:53Z</time>
      </trkpt>
      <trkpt lat="43.49213" lon="-1.47855">
        <ele>4.94</ele>
        <time>2021-07-04T13:53:54Z</time>
      </trkpt>
      <trkpt lat="43.49218" lon="-1.4786">
        <ele>3.98</ele>
        <time>2021-07-04T13:53:55Z</time>
      </trkpt>
      <trkpt lat="43.49223" lon="-1.47864">
        <ele>3.5</ele>
        <time>2021-07-04T13:53:56Z</time>
      </trkpt>
      <trkpt lat="43.49223" lon="-1.47864">
        <ele>3.02</ele>
        <time>2021-07-04T13:53:57Z</time>
      </trkpt>
      <trkpt lat="43.49229" lon="-1.47869">
        <ele>2.54</ele>
        <time>2021-07-04T13:53:58Z</time>
      </trkpt>
      <trkpt lat="43.49234" lon="-1.47873">
        <ele>1.58</ele>
        <time>2021-07-04T13:53:59Z</time>
      </trkpt>
      <trkpt lat="43.4924" lon="-1.47873">
        <ele>1.1</ele>
        <time>2021-07-04T13:54:00Z</time>
      </trkpt>
      <trkpt lat="43.49246" lon="-1.47872">
        <ele>0.62</ele>
        <time>2021-07-04T13:54:01Z</time>
      </trkpt>
      <trkpt lat="43.4925" lon="-1.4787">
        <ele>0.62</ele>
        <time>2021-07-04T13:54:02Z</time>
      </trkpt>
      <trkpt lat="43.49254" lon="-1.47866">
        <ele>0.14</ele>
        <time>2021-07-04T13:54:03Z</time>
      </trkpt>
      <trkpt lat="43.49265" lon="-1.47853">
        <ele>-2.27</ele>
        <time>2021-07-04T13:54:09Z</time>
      </trkpt>
      <trkpt lat="43.49267" lon="-1.47852">
        <ele>-2.27</ele>
        <time>2021-07-04T13:54:10Z</time>
      </trkpt>
      <trkpt lat="43.49267" lon="-1.47861">
        <ele>-2.27</ele>
        <time>2021-07-04T13:54:11Z</time>
      </trkpt>
      <trkpt lat="43.49291" lon="-1.47906">
        <ele>-1.3</ele>
        <time>2021-07-04T13:54:23Z</time>
      </trkpt>
      <trkpt lat="43.49299" lon="-1.4792">
        <ele>2.54</ele>
        <time>2021-07-04T13:54:34Z</time>
      </trkpt>
      <trkpt lat="43.49304" lon="-1.47919">
        <ele>2.54</ele>
        <time>2021-07-04T13:54:35Z</time>
      </trkpt>
      <trkpt lat="43.49306" lon="-1.47917">
        <ele>2.54</ele>
        <time>2021-07-04T13:54:36Z</time>
      </trkpt>
      <trkpt lat="43.49338" lon="-1.47884">
        <ele>2.54</ele>
        <time>2021-07-04T13:54:48Z</time>
      </trkpt>
      <trkpt lat="43.49372" lon="-1.4785">
        <ele>1.1</ele>
        <time>2021-07-04T13:55:01Z</time>
      </trkpt>
      <trkpt lat="43.49394" lon="-1.47829">
        <ele>2.54</ele>
        <time>2021-07-04T13:55:15Z</time>
      </trkpt>
      <trkpt lat="43.49418" lon="-1.47804">
        <ele>3.5</ele>
        <time>2021-07-04T13:55:28Z</time>
      </trkpt>
      <trkpt lat="43.49447" lon="-1.47778">
        <ele>5.42</ele>
        <time>2021-07-04T13:55:42Z</time>
      </trkpt>
      <trkpt lat="43.49454" lon="-1.47771">
        <ele>5.42</ele>
        <time>2021-07-04T13:55:57Z</time>
      </trkpt>
      <trkpt lat="43.49454" lon="-1.47771">
        <ele>5.42</ele>
        <time>2021-07-04T13:56:13Z</time>
      </trkpt>
      <trkpt lat="43.49456" lon="-1.47766">
        <ele>5.42</ele>
        <time>2021-07-04T13:56:14Z</time>
      </trkpt>
      <trkpt lat="43.49456" lon="-1.47766">
        <ele>5.42</ele>
        <time>2021-07-04T13:56:15Z</time>
      </trkpt>
      <trkpt lat="43.49455" lon="-1.47763">
        <ele>5.42</ele>
        <time>2021-07-04T13:56:16Z</time>
      </trkpt>
      <trkpt lat="43.49454" lon="-1.47759">
        <ele>5.42</ele>
        <time>2021-07-04T13:56:17Z</time>
      </trkpt>
      <trkpt lat="43.49452" lon="-1.47755">
        <ele>5.42</ele>
        <time>2021-07-04T13:56:18Z</time>
      </trkpt>
      <trkpt lat="43.49425" lon="-1.47689">
        <ele>5.91</ele>
        <time>2021-07-04T13:56:32Z</time>
      </trkpt>
      <trkpt lat="43.49403" lon="-1.4766">
        <ele>7.83</ele>
        <time>2021-07-04T13:56:41Z</time>
      </trkpt>
      <trkpt lat="43.49401" lon="-1.47657">
        <ele>7.83</ele>
        <time>2021-07-04T13:56:42Z</time>
      </trkpt>
      <trkpt lat="43.4941" lon="-1.47655">
        <ele>8.31</ele>
        <time>2021-07-04T13:56:43Z</time>
      </trkpt>
      <trkpt lat="43.49412" lon="-1.47653">
        <ele>8.31</ele>
        <time>2021-07-04T13:56:44Z</time>
      </trkpt>
      <trkpt lat="43.49414" lon="-1.47651">
        <ele>7.83</ele>
        <time>2021-07-04T13:56:45Z</time>
      </trkpt>
      <trkpt lat="43.49415" lon="-1.47649">
        <ele>7.83</ele>
        <time>2021-07-04T13:56:46Z</time>
      </trkpt>
      <trkpt lat="43.49417" lon="-1.47648">
        <ele>7.35</ele>
        <time>2021-07-04T13:57:04Z</time>
      </trkpt>
      <trkpt lat="43.49424" lon="-1.47641">
        <ele>7.83</ele>
        <time>2021-07-04T13:57:11Z</time>
      </trkpt>
      <trkpt lat="43.49425" lon="-1.47639">
        <ele>7.83</ele>
        <time>2021-07-04T13:57:12Z</time>
      </trkpt>
      <trkpt lat="43.49427" lon="-1.47638">
        <ele>7.83</ele>
        <time>2021-07-04T13:57:13Z</time>
      </trkpt>
      <trkpt lat="43.49428" lon="-1.47636">
        <ele>7.83</ele>
        <time>2021-07-04T13:57:14Z</time>
      </trkpt>
      <trkpt lat="43.49427" lon="-1.47631">
        <ele>7.83</ele>
        <time>2021-07-04T13:57:25Z</time>
      </trkpt>
      <trkpt lat="43.49427" lon="-1.47632">
        <ele>7.35</ele>
        <time>2021-07-04T13:57:26Z</time>
      </trkpt>
      <trkpt lat="43.49422" lon="-1.47639">
        <ele>6.39</ele>
        <time>2021-07-04T13:57:43Z</time>
      </trkpt>
      <trkpt lat="43.49417" lon="-1.47646">
        <ele>6.39</ele>
        <time>2021-07-04T13:57:48Z</time>
      </trkpt>
      <trkpt lat="43.49406" lon="-1.47663">
        <ele>6.39</ele>
        <time>2021-07-04T13:57:50Z</time>
      </trkpt>
      <trkpt lat="43.49407" lon="-1.47665">
        <ele>6.39</ele>
        <time>2021-07-04T13:57:51Z</time>
      </trkpt>
      <trkpt lat="43.49409" lon="-1.47668">
        <ele>5.91</ele>
        <time>2021-07-04T13:57:52Z</time>
      </trkpt>
      <trkpt lat="43.49411" lon="-1.47671">
        <ele>5.91</ele>
        <time>2021-07-04T13:57:53Z</time>
      </trkpt>
      <trkpt lat="43.49414" lon="-1.47675">
        <ele>5.91</ele>
        <time>2021-07-04T13:57:54Z</time>
      </trkpt>
      <trkpt lat="43.49425" lon="-1.47689">
        <ele>5.91</ele>
        <time>2021-07-04T13:57:57Z</time>
      </trkpt>
      <trkpt lat="43.49428" lon="-1.47694">
        <ele>5.91</ele>
        <time>2021-07-04T13:57:58Z</time>
      </trkpt>
      <trkpt lat="43.49454" lon="-1.4776">
        <ele>3.02</ele>
        <time>2021-07-04T13:58:09Z</time>
      </trkpt>
      <trkpt lat="43.49456" lon="-1.47766">
        <ele>2.54</ele>
        <time>2021-07-04T13:58:11Z</time>
      </trkpt>
      <trkpt lat="43.49461" lon="-1.47778">
        <ele>2.54</ele>
        <time>2021-07-04T13:58:13Z</time>
      </trkpt>
      <trkpt lat="43.49463" lon="-1.47786">
        <ele>3.02</ele>
        <time>2021-07-04T13:58:14Z</time>
      </trkpt>
      <trkpt lat="43.49466" lon="-1.47793">
        <ele>3.5</ele>
        <time>2021-07-04T13:58:15Z</time>
      </trkpt>
      <trkpt lat="43.49468" lon="-1.47799">
        <ele>3.5</ele>
        <time>2021-07-04T13:58:16Z</time>
      </trkpt>
      <trkpt lat="43.4947" lon="-1.47805">
        <ele>3.5</ele>
        <time>2021-07-04T13:58:17Z</time>
      </trkpt>
      <trkpt lat="43.49472" lon="-1.4781">
        <ele>3.5</ele>
        <time>2021-07-04T13:58:18Z</time>
      </trkpt>
      <trkpt lat="43.49515" lon="-1.47828">
        <ele>3.02</ele>
        <time>2021-07-04T13:58:26Z</time>
      </trkpt>
      <trkpt lat="43.49516" lon="-1.47832">
        <ele>2.54</ele>
        <time>2021-07-04T13:58:27Z</time>
      </trkpt>
      <trkpt lat="43.49508" lon="-1.47839">
        <ele>2.54</ele>
        <time>2021-07-04T13:58:28Z</time>
      </trkpt>
      <trkpt lat="43.49504" lon="-1.47843">
        <ele>2.06</ele>
        <time>2021-07-04T13:58:29Z</time>
      </trkpt>
      <trkpt lat="43.49501" lon="-1.47847">
        <ele>1.58</ele>
        <time>2021-07-04T13:58:30Z</time>
      </trkpt>
      <trkpt lat="43.49496" lon="-1.47852">
        <ele>1.1</ele>
        <time>2021-07-04T13:58:31Z</time>
      </trkpt>
      <trkpt lat="43.4942" lon="-1.47924">
        <ele>-0.82</ele>
        <time>2021-07-04T13:58:45Z</time>
      </trkpt>
      <trkpt lat="43.49381" lon="-1.47959">
        <ele>-1.79</ele>
        <time>2021-07-04T13:58:57Z</time>
      </trkpt>
      <trkpt lat="43.49366" lon="-1.47972">
        <ele>-2.27</ele>
        <time>2021-07-04T13:59:10Z</time>
      </trkpt>
      <trkpt lat="43.49347" lon="-1.4799">
        <ele>-2.27</ele>
        <time>2021-07-04T13:59:21Z</time>
      </trkpt>
      <trkpt lat="43.49295" lon="-1.48033">
        <ele>0.14</ele>
        <time>2021-07-04T13:59:31Z</time>
      </trkpt>
      <trkpt lat="43.49279" lon="-1.48045">
        <ele>1.58</ele>
        <time>2021-07-04T13:59:38Z</time>
      </trkpt>
      <trkpt lat="43.49277" lon="-1.48046">
        <ele>1.58</ele>
        <time>2021-07-04T13:59:51Z</time>
      </trkpt>
      <trkpt lat="43.49269" lon="-1.48063">
        <ele>47.24</ele>
        <time>2021-07-04T15:10:58Z</time>
      </trkpt>
      <trkpt lat="43.49287" lon="-1.48055">
        <ele>21.29</ele>
        <time>2021-07-04T15:11:27Z</time>
      </trkpt>
      <trkpt lat="43.49266" lon="-1.48056">
        <ele>7.35</ele>
        <time>2021-07-04T15:12:32Z</time>
      </trkpt>
      <trkpt lat="43.4921" lon="-1.48118">
        <ele>9.75</ele>
        <time>2021-07-04T15:12:45Z</time>
      </trkpt>
      <trkpt lat="43.4916" lon="-1.48156">
        <ele>12.15</ele>
        <time>2021-07-04T15:12:57Z</time>
      </trkpt>
      <trkpt lat="43.49149" lon="-1.48163">
        <ele>12.15</ele>
        <time>2021-07-04T15:13:07Z</time>
      </trkpt>
      <trkpt lat="43.49142" lon="-1.48167">
        <ele>12.15</ele>
        <time>2021-07-04T15:13:13Z</time>
      </trkpt>
      <trkpt lat="43.49142" lon="-1.48167">
        <ele>11.67</ele>
        <time>2021-07-04T15:13:14Z</time>
      </trkpt>
      <trkpt lat="43.49142" lon="-1.4817">
        <ele>11.67</ele>
        <time>2021-07-04T15:13:15Z</time>
      </trkpt>
      <trkpt lat="43.49143" lon="-1.48175">
        <ele>11.67</ele>
        <time>2021-07-04T15:13:16Z</time>
      </trkpt>
      <trkpt lat="43.49143" lon="-1.48179">
        <ele>11.67</ele>
        <time>2021-07-04T15:13:17Z</time>
      </trkpt>
      <trkpt lat="43.49158" lon="-1.48254">
        <ele>12.15</ele>
        <time>2021-07-04T15:13:31Z</time>
      </trkpt>
      <trkpt lat="43.49163" lon="-1.48339">
        <ele>13.12</ele>
        <time>2021-07-04T15:13:47Z</time>
      </trkpt>
      <trkpt lat="43.49166" lon="-1.4844">
        <ele>13.6</ele>
        <time>2021-07-04T15:14:05Z</time>
      </trkpt>
      <trkpt lat="43.49177" lon="-1.4851">
        <ele>13.6</ele>
        <time>2021-07-04T15:14:17Z</time>
      </trkpt>
      <trkpt lat="43.49209" lon="-1.48605">
        <ele>11.19</ele>
        <time>2021-07-04T15:14:33Z</time>
      </trkpt>
      <trkpt lat="43.49218" lon="-1.4863">
        <ele>9.75</ele>
        <time>2021-07-04T15:14:43Z</time>
      </trkpt>
      <trkpt lat="43.49256" lon="-1.48727">
        <ele>7.35</ele>
        <time>2021-07-04T15:14:55Z</time>
      </trkpt>
      <trkpt lat="43.49293" lon="-1.48819">
        <ele>6.39</ele>
        <time>2021-07-04T15:15:09Z</time>
      </trkpt>
      <trkpt lat="43.49311" lon="-1.48828">
        <ele>6.39</ele>
        <time>2021-07-04T15:15:12Z</time>
      </trkpt>
      <trkpt lat="43.49376" lon="-1.48862">
        <ele>6.87</ele>
        <time>2021-07-04T15:15:23Z</time>
      </trkpt>
      <trkpt lat="43.49387" lon="-1.48874">
        <ele>6.39</ele>
        <time>2021-07-04T15:15:25Z</time>
      </trkpt>
      <trkpt lat="43.49394" lon="-1.4888">
        <ele>6.39</ele>
        <time>2021-07-04T15:15:26Z</time>
      </trkpt>
      <trkpt lat="43.49399" lon="-1.48887">
        <ele>7.35</ele>
        <time>2021-07-04T15:15:27Z</time>
      </trkpt>
      <trkpt lat="43.49444" lon="-1.48996">
        <ele>8.31</ele>
        <time>2021-07-04T15:15:39Z</time>
      </trkpt>
      <trkpt lat="43.49458" lon="-1.49034">
        <ele>6.39</ele>
        <time>2021-07-04T15:15:45Z</time>
      </trkpt>
      <trkpt lat="43.4946" lon="-1.49041">
        <ele>6.39</ele>
        <time>2021-07-04T15:15:46Z</time>
      </trkpt>
      <trkpt lat="43.49462" lon="-1.49045">
        <ele>5.91</ele>
        <time>2021-07-04T15:15:47Z</time>
      </trkpt>
      <trkpt lat="43.49459" lon="-1.49053">
        <ele>5.91</ele>
        <time>2021-07-04T15:15:48Z</time>
      </trkpt>
      <trkpt lat="43.49456" lon="-1.49061">
        <ele>4.94</ele>
        <time>2021-07-04T15:15:49Z</time>
      </trkpt>
      <trkpt lat="43.49455" lon="-1.49064">
        <ele>4.46</ele>
        <time>2021-07-04T15:15:50Z</time>
      </trkpt>
      <trkpt lat="43.4945" lon="-1.49068">
        <ele>3.98</ele>
        <time>2021-07-04T15:15:51Z</time>
      </trkpt>
      <trkpt lat="43.49445" lon="-1.49072">
        <ele>3.02</ele>
        <time>2021-07-04T15:15:52Z</time>
      </trkpt>
      <trkpt lat="43.4944" lon="-1.49076">
        <ele>2.54</ele>
        <time>2021-07-04T15:15:53Z</time>
      </trkpt>
      <trkpt lat="43.49406" lon="-1.49102">
        <ele>-0.82</ele>
        <time>2021-07-04T15:16:00Z</time>
      </trkpt>
      <trkpt lat="43.49401" lon="-1.49108">
        <ele>-0.82</ele>
        <time>2021-07-04T15:16:01Z</time>
      </trkpt>
      <trkpt lat="43.49376" lon="-1.49145">
        <ele>-2.27</ele>
        <time>2021-07-04T15:16:09Z</time>
      </trkpt>
      <trkpt lat="43.49377" lon="-1.49149">
        <ele>-2.27</ele>
        <time>2021-07-04T15:16:10Z</time>
      </trkpt>
      <trkpt lat="43.49379" lon="-1.49152">
        <ele>-2.75</ele>
        <time>2021-07-04T15:16:11Z</time>
      </trkpt>
      <trkpt lat="43.49384" lon="-1.49156">
        <ele>-2.75</ele>
        <time>2021-07-04T15:16:12Z</time>
      </trkpt>
      <trkpt lat="43.49388" lon="-1.49158">
        <ele>-3.23</ele>
        <time>2021-07-04T15:16:13Z</time>
      </trkpt>
      <trkpt lat="43.49441" lon="-1.4916">
        <ele>-5.15</ele>
        <time>2021-07-04T15:16:22Z</time>
      </trkpt>
      <trkpt lat="43.49558" lon="-1.49131">
        <ele>-6.59</ele>
        <time>2021-07-04T15:16:35Z</time>
      </trkpt>
      <trkpt lat="43.4962" lon="-1.4912">
        <ele>-8.03</ele>
        <time>2021-07-04T15:16:43Z</time>
      </trkpt>
      <trkpt lat="43.4963" lon="-1.49119">
        <ele>-9</ele>
        <time>2021-07-04T15:16:44Z</time>
      </trkpt>
      <trkpt lat="43.49727" lon="-1.49126">
        <ele>-8.03</ele>
        <time>2021-07-04T15:16:55Z</time>
      </trkpt>
      <trkpt lat="43.49735" lon="-1.49125">
        <ele>-8.03</ele>
        <time>2021-07-04T15:16:56Z</time>
      </trkpt>
      <trkpt lat="43.49742" lon="-1.49122">
        <ele>-7.55</ele>
        <time>2021-07-04T15:16:57Z</time>
      </trkpt>
      <trkpt lat="43.4975" lon="-1.49118">
        <ele>-7.55</ele>
        <time>2021-07-04T15:16:58Z</time>
      </trkpt>
      <trkpt lat="43.49757" lon="-1.49115">
        <ele>-7.07</ele>
        <time>2021-07-04T15:16:59Z</time>
      </trkpt>
      <trkpt lat="43.49797" lon="-1.49091">
        <ele>-6.11</ele>
        <time>2021-07-04T15:17:08Z</time>
      </trkpt>
      <trkpt lat="43.49812" lon="-1.49079">
        <ele>-5.63</ele>
        <time>2021-07-04T15:17:32Z</time>
      </trkpt>
      <trkpt lat="43.49816" lon="-1.49074">
        <ele>-5.15</ele>
        <time>2021-07-04T15:17:34Z</time>
      </trkpt>
      <trkpt lat="43.49817" lon="-1.49082">
        <ele>-5.15</ele>
        <time>2021-07-04T15:17:35Z</time>
      </trkpt>
      <trkpt lat="43.49817" lon="-1.49086">
        <ele>-5.15</ele>
        <time>2021-07-04T15:17:36Z</time>
      </trkpt>
      <trkpt lat="43.49818" lon="-1.49092">
        <ele>-5.15</ele>
        <time>2021-07-04T15:17:37Z</time>
      </trkpt>
      <trkpt lat="43.49819" lon="-1.49098">
        <ele>-5.15</ele>
        <time>2021-07-04T15:17:38Z</time>
      </trkpt>
      <trkpt lat="43.4982" lon="-1.49106">
        <ele>-5.15</ele>
        <time>2021-07-04T15:17:39Z</time>
      </trkpt>
      <trkpt lat="43.49832" lon="-1.49227">
        <ele>-6.11</ele>
        <time>2021-07-04T15:17:49Z</time>
      </trkpt>
      <trkpt lat="43.49824" lon="-1.49343">
        <ele>-6.59</ele>
        <time>2021-07-04T15:17:59Z</time>
      </trkpt>
      <trkpt lat="43.49823" lon="-1.49349">
        <ele>-6.59</ele>
        <time>2021-07-04T15:18:00Z</time>
      </trkpt>
      <trkpt lat="43.49823" lon="-1.49354">
        <ele>-6.11</ele>
        <time>2021-07-04T15:18:01Z</time>
      </trkpt>
      <trkpt lat="43.49829" lon="-1.49362">
        <ele>-6.11</ele>
        <time>2021-07-04T15:18:02Z</time>
      </trkpt>
      <trkpt lat="43.49833" lon="-1.49364">
        <ele>-6.11</ele>
        <time>2021-07-04T15:18:03Z</time>
      </trkpt>
      <trkpt lat="43.49837" lon="-1.49367">
        <ele>-6.11</ele>
        <time>2021-07-04T15:18:04Z</time>
      </trkpt>
      <trkpt lat="43.49847" lon="-1.4938">
        <ele>-5.63</ele>
        <time>2021-07-04T15:18:05Z</time>
      </trkpt>
      <trkpt lat="43.49847" lon="-1.4938">
        <ele>-5.63</ele>
        <time>2021-07-04T15:18:06Z</time>
      </trkpt>
      <trkpt lat="43.4985" lon="-1.49389">
        <ele>-5.63</ele>
        <time>2021-07-04T15:18:07Z</time>
      </trkpt>
      <trkpt lat="43.49851" lon="-1.49408">
        <ele>-5.63</ele>
        <time>2021-07-04T15:18:08Z</time>
      </trkpt>
      <trkpt lat="43.49851" lon="-1.49408">
        <ele>-5.63</ele>
        <time>2021-07-04T15:18:09Z</time>
      </trkpt>
      <trkpt lat="43.4985" lon="-1.49417">
        <ele>-5.63</ele>
        <time>2021-07-04T15:18:10Z</time>
      </trkpt>
      <trkpt lat="43.49848" lon="-1.49426">
        <ele>-6.11</ele>
        <time>2021-07-04T15:18:11Z</time>
      </trkpt>
      <trkpt lat="43.49843" lon="-1.49435">
        <ele>-6.11</ele>
        <time>2021-07-04T15:18:12Z</time>
      </trkpt>
      <trkpt lat="43.49834" lon="-1.4945">
        <ele>-6.59</ele>
        <time>2021-07-04T15:18:13Z</time>
      </trkpt>
      <trkpt lat="43.49834" lon="-1.4945">
        <ele>-6.59</ele>
        <time>2021-07-04T15:18:14Z</time>
      </trkpt>
      <trkpt lat="43.49827" lon="-1.49457">
        <ele>-7.07</ele>
        <time>2021-07-04T15:18:15Z</time>
      </trkpt>
      <trkpt lat="43.49819" lon="-1.49461">
        <ele>-7.07</ele>
        <time>2021-07-04T15:18:16Z</time>
      </trkpt>
      <trkpt lat="43.49807" lon="-1.49468">
        <ele>-6.59</ele>
        <time>2021-07-04T15:18:18Z</time>
      </trkpt>
      <trkpt lat="43.49793" lon="-1.49477">
        <ele>-7.07</ele>
        <time>2021-07-04T15:18:19Z</time>
      </trkpt>
      <trkpt lat="43.49791" lon="-1.49487">
        <ele>-7.07</ele>
        <time>2021-07-04T15:18:20Z</time>
      </trkpt>
      <trkpt lat="43.49785" lon="-1.49508">
        <ele>-7.07</ele>
        <time>2021-07-04T15:18:21Z</time>
      </trkpt>
      <trkpt lat="43.49782" lon="-1.4952">
        <ele>-7.07</ele>
        <time>2021-07-04T15:18:22Z</time>
      </trkpt>
      <trkpt lat="43.49737" lon="-1.49658">
        <ele>-11.88</ele>
        <time>2021-07-04T15:18:32Z</time>
      </trkpt>
      <trkpt lat="43.49692" lon="-1.49862">
        <ele>-8.51</ele>
        <time>2021-07-04T15:18:43Z</time>
      </trkpt>
      <trkpt lat="43.49703" lon="-1.50069">
        <ele>-1.79</ele>
        <time>2021-07-04T15:18:51Z</time>
      </trkpt>
      <trkpt lat="43.4974" lon="-1.50316">
        <ele>3.98</ele>
        <time>2021-07-04T15:19:02Z</time>
      </trkpt>
      <trkpt lat="43.49768" lon="-1.50615">
        <ele>4.46</ele>
        <time>2021-07-04T15:19:14Z</time>
      </trkpt>
      <trkpt lat="43.49743" lon="-1.50783">
        <ele>5.91</ele>
        <time>2021-07-04T15:19:21Z</time>
      </trkpt>
      <trkpt lat="43.49743" lon="-1.50783">
        <ele>6.39</ele>
        <time>2021-07-04T15:19:22Z</time>
      </trkpt>
      <trkpt lat="43.49735" lon="-1.50798">
        <ele>5.91</ele>
        <time>2021-07-04T15:19:23Z</time>
      </trkpt>
      <trkpt lat="43.49728" lon="-1.50811">
        <ele>6.87</ele>
        <time>2021-07-04T15:19:24Z</time>
      </trkpt>
      <trkpt lat="43.49721" lon="-1.50824">
        <ele>6.39</ele>
        <time>2021-07-04T15:19:25Z</time>
      </trkpt>
      <trkpt lat="43.49712" lon="-1.50842">
        <ele>7.83</ele>
        <time>2021-07-04T15:19:27Z</time>
      </trkpt>
      <trkpt lat="43.49708" lon="-1.50847">
        <ele>7.83</ele>
        <time>2021-07-04T15:19:28Z</time>
      </trkpt>
      <trkpt lat="43.49705" lon="-1.50851">
        <ele>7.35</ele>
        <time>2021-07-04T15:19:29Z</time>
      </trkpt>
      <trkpt lat="43.49708" lon="-1.50862">
        <ele>7.35</ele>
        <time>2021-07-04T15:19:30Z</time>
      </trkpt>
      <trkpt lat="43.49711" lon="-1.50865">
        <ele>7.83</ele>
        <time>2021-07-04T15:19:31Z</time>
      </trkpt>
      <trkpt lat="43.49716" lon="-1.5087">
        <ele>7.83</ele>
        <time>2021-07-04T15:19:32Z</time>
      </trkpt>
      <trkpt lat="43.4972" lon="-1.50878">
        <ele>7.83</ele>
        <time>2021-07-04T15:19:33Z</time>
      </trkpt>
      <trkpt lat="43.49723" lon="-1.50887">
        <ele>8.31</ele>
        <time>2021-07-04T15:19:34Z</time>
      </trkpt>
      <trkpt lat="43.49727" lon="-1.50909">
        <ele>8.31</ele>
        <time>2021-07-04T15:19:35Z</time>
      </trkpt>
      <trkpt lat="43.4973" lon="-1.50932">
        <ele>9.27</ele>
        <time>2021-07-04T15:19:38Z</time>
      </trkpt>
      <trkpt lat="43.49732" lon="-1.50943">
        <ele>9.75</ele>
        <time>2021-07-04T15:19:39Z</time>
      </trkpt>
      <trkpt lat="43.49731" lon="-1.50954">
        <ele>10.23</ele>
        <time>2021-07-04T15:19:40Z</time>
      </trkpt>
      <trkpt lat="43.49728" lon="-1.50964">
        <ele>10.23</ele>
        <time>2021-07-04T15:19:41Z</time>
      </trkpt>
      <trkpt lat="43.49723" lon="-1.50972">
        <ele>10.71</ele>
        <time>2021-07-04T15:19:42Z</time>
      </trkpt>
      <trkpt lat="43.49719" lon="-1.50978">
        <ele>11.19</ele>
        <time>2021-07-04T15:19:43Z</time>
      </trkpt>
      <trkpt lat="43.49712" lon="-1.50983">
        <ele>11.19</ele>
        <time>2021-07-04T15:19:44Z</time>
      </trkpt>
      <trkpt lat="43.49708" lon="-1.50985">
        <ele>11.19</ele>
        <time>2021-07-04T15:19:45Z</time>
      </trkpt>
      <trkpt lat="43.49683" lon="-1.50994">
        <ele>12.15</ele>
        <time>2021-07-04T15:19:46Z</time>
      </trkpt>
      <trkpt lat="43.49683" lon="-1.50994">
        <ele>12.63</ele>
        <time>2021-07-04T15:19:47Z</time>
      </trkpt>
      <trkpt lat="43.4968" lon="-1.51005">
        <ele>11.67</ele>
        <time>2021-07-04T15:19:48Z</time>
      </trkpt>
      <trkpt lat="43.49676" lon="-1.51016">
        <ele>11.19</ele>
        <time>2021-07-04T15:19:49Z</time>
      </trkpt>
      <trkpt lat="43.49672" lon="-1.51028">
        <ele>10.71</ele>
        <time>2021-07-04T15:19:50Z</time>
      </trkpt>
      <trkpt lat="43.49611" lon="-1.51221">
        <ele>10.23</ele>
        <time>2021-07-04T15:20:02Z</time>
      </trkpt>
      <trkpt lat="43.49531" lon="-1.51502">
        <ele>5.91</ele>
        <time>2021-07-04T15:20:16Z</time>
      </trkpt>
      <trkpt lat="43.49465" lon="-1.51732">
        <ele>8.31</ele>
        <time>2021-07-04T15:20:28Z</time>
      </trkpt>
      <trkpt lat="43.4945" lon="-1.51809">
        <ele>9.27</ele>
        <time>2021-07-04T15:20:33Z</time>
      </trkpt>
      <trkpt lat="43.4945" lon="-1.51809">
        <ele>10.23</ele>
        <time>2021-07-04T15:20:34Z</time>
      </trkpt>
      <trkpt lat="43.49449" lon="-1.51817">
        <ele>10.23</ele>
        <time>2021-07-04T15:20:35Z</time>
      </trkpt>
      <trkpt lat="43.49448" lon="-1.51826">
        <ele>11.19</ele>
        <time>2021-07-04T15:20:36Z</time>
      </trkpt>
      <trkpt lat="43.49447" lon="-1.51837">
        <ele>12.15</ele>
        <time>2021-07-04T15:20:37Z</time>
      </trkpt>
      <trkpt lat="43.4945" lon="-1.51843">
        <ele>12.63</ele>
        <time>2021-07-04T15:20:38Z</time>
      </trkpt>
      <trkpt lat="43.49452" lon="-1.51855">
        <ele>13.6</ele>
        <time>2021-07-04T15:20:39Z</time>
      </trkpt>
      <trkpt lat="43.49451" lon="-1.51864">
        <ele>14.08</ele>
        <time>2021-07-04T15:20:40Z</time>
      </trkpt>
      <trkpt lat="43.4945" lon="-1.51874">
        <ele>15.04</ele>
        <time>2021-07-04T15:20:41Z</time>
      </trkpt>
      <trkpt lat="43.49442" lon="-1.5189">
        <ele>16.48</ele>
        <time>2021-07-04T15:20:42Z</time>
      </trkpt>
      <trkpt lat="43.49442" lon="-1.5189">
        <ele>17.92</ele>
        <time>2021-07-04T15:20:43Z</time>
      </trkpt>
      <trkpt lat="43.49437" lon="-1.51893">
        <ele>18.88</ele>
        <time>2021-07-04T15:20:44Z</time>
      </trkpt>
      <trkpt lat="43.49423" lon="-1.51905">
        <ele>18.88</ele>
        <time>2021-07-04T15:20:45Z</time>
      </trkpt>
      <trkpt lat="43.49423" lon="-1.51905">
        <ele>18.4</ele>
        <time>2021-07-04T15:20:46Z</time>
      </trkpt>
      <trkpt lat="43.49419" lon="-1.51913">
        <ele>18.88</ele>
        <time>2021-07-04T15:20:47Z</time>
      </trkpt>
      <trkpt lat="43.49383" lon="-1.52036">
        <ele>19.36</ele>
        <time>2021-07-04T15:20:55Z</time>
      </trkpt>
      <trkpt lat="43.49368" lon="-1.52203">
        <ele>21.77</ele>
        <time>2021-07-04T15:21:03Z</time>
      </trkpt>
      <trkpt lat="43.49379" lon="-1.52335">
        <ele>25.61</ele>
        <time>2021-07-04T15:21:11Z</time>
      </trkpt>
      <trkpt lat="43.49402" lon="-1.52565">
        <ele>31.38</ele>
        <time>2021-07-04T15:21:25Z</time>
      </trkpt>
      <trkpt lat="43.49402" lon="-1.52565">
        <ele>31.86</ele>
        <time>2021-07-04T15:21:26Z</time>
      </trkpt>
      <trkpt lat="43.4941" lon="-1.52572">
        <ele>31.86</ele>
        <time>2021-07-04T15:21:27Z</time>
      </trkpt>
      <trkpt lat="43.49416" lon="-1.52581">
        <ele>31.86</ele>
        <time>2021-07-04T15:21:28Z</time>
      </trkpt>
      <trkpt lat="43.49423" lon="-1.5259">
        <ele>32.34</ele>
        <time>2021-07-04T15:21:29Z</time>
      </trkpt>
      <trkpt lat="43.49436" lon="-1.5261">
        <ele>32.34</ele>
        <time>2021-07-04T15:21:31Z</time>
      </trkpt>
      <trkpt lat="43.49443" lon="-1.52621">
        <ele>32.82</ele>
        <time>2021-07-04T15:21:32Z</time>
      </trkpt>
      <trkpt lat="43.49454" lon="-1.52644">
        <ele>32.82</ele>
        <time>2021-07-04T15:21:33Z</time>
      </trkpt>
      <trkpt lat="43.49454" lon="-1.52644">
        <ele>33.78</ele>
        <time>2021-07-04T15:21:34Z</time>
      </trkpt>
      <trkpt lat="43.49457" lon="-1.5267">
        <ele>33.3</ele>
        <time>2021-07-04T15:21:35Z</time>
      </trkpt>
      <trkpt lat="43.49457" lon="-1.5267">
        <ele>32.82</ele>
        <time>2021-07-04T15:21:36Z</time>
      </trkpt>
      <trkpt lat="43.49461" lon="-1.52773">
        <ele>37.15</ele>
        <time>2021-07-04T15:21:47Z</time>
      </trkpt>
      <trkpt lat="43.49469" lon="-1.52798">
        <ele>38.59</ele>
        <time>2021-07-04T15:21:56Z</time>
      </trkpt>
      <trkpt lat="43.49473" lon="-1.52801">
        <ele>39.07</ele>
        <time>2021-07-04T15:21:57Z</time>
      </trkpt>
      <trkpt lat="43.49476" lon="-1.52809">
        <ele>39.55</ele>
        <time>2021-07-04T15:21:58Z</time>
      </trkpt>
      <trkpt lat="43.49478" lon="-1.52815">
        <ele>40.03</ele>
        <time>2021-07-04T15:21:59Z</time>
      </trkpt>
      <trkpt lat="43.49477" lon="-1.52824">
        <ele>40.03</ele>
        <time>2021-07-04T15:22:00Z</time>
      </trkpt>
      <trkpt lat="43.49475" lon="-1.5283">
        <ele>40.03</ele>
        <time>2021-07-04T15:22:01Z</time>
      </trkpt>
      <trkpt lat="43.49472" lon="-1.52839">
        <ele>40.51</ele>
        <time>2021-07-04T15:22:02Z</time>
      </trkpt>
      <trkpt lat="43.49472" lon="-1.52839">
        <ele>40.51</ele>
        <time>2021-07-04T15:22:03Z</time>
      </trkpt>
      <trkpt lat="43.49457" lon="-1.5288">
        <ele>37.63</ele>
        <time>2021-07-04T15:22:13Z</time>
      </trkpt>
      <trkpt lat="43.49459" lon="-1.52888">
        <ele>37.63</ele>
        <time>2021-07-04T15:22:15Z</time>
      </trkpt>
      <trkpt lat="43.49459" lon="-1.52891">
        <ele>37.63</ele>
        <time>2021-07-04T15:22:16Z</time>
      </trkpt>
      <trkpt lat="43.4946" lon="-1.52893">
        <ele>37.63</ele>
        <time>2021-07-04T15:22:17Z</time>
      </trkpt>
      <trkpt lat="43.49474" lon="-1.52907">
        <ele>37.63</ele>
        <time>2021-07-04T15:22:28Z</time>
      </trkpt>
      <trkpt lat="43.49488" lon="-1.52932">
        <ele>38.59</ele>
        <time>2021-07-04T15:22:39Z</time>
      </trkpt>
      <trkpt lat="43.49492" lon="-1.53003">
        <ele>38.59</ele>
        <time>2021-07-04T15:22:52Z</time>
      </trkpt>
      <trkpt lat="43.49493" lon="-1.5313">
        <ele>36.67</ele>
        <time>2021-07-04T15:23:07Z</time>
      </trkpt>
      <trkpt lat="43.49499" lon="-1.53242">
        <ele>31.86</ele>
        <time>2021-07-04T15:23:21Z</time>
      </trkpt>
      <trkpt lat="43.49503" lon="-1.53313">
        <ele>28.98</ele>
        <time>2021-07-04T15:23:31Z</time>
      </trkpt>
      <trkpt lat="43.49504" lon="-1.5332">
        <ele>28.98</ele>
        <time>2021-07-04T15:23:41Z</time>
      </trkpt>
      <trkpt lat="43.49505" lon="-1.53349">
        <ele>28.98</ele>
        <time>2021-07-04T15:23:56Z</time>
      </trkpt>
      <trkpt lat="43.49515" lon="-1.53415">
        <ele>31.38</ele>
        <time>2021-07-04T15:24:03Z</time>
      </trkpt>
      <trkpt lat="43.49515" lon="-1.53426">
        <ele>31.86</ele>
        <time>2021-07-04T15:24:04Z</time>
      </trkpt>
      <trkpt lat="43.49516" lon="-1.53458">
        <ele>32.82</ele>
        <time>2021-07-04T15:24:07Z</time>
      </trkpt>
      <trkpt lat="43.49518" lon="-1.53468">
        <ele>32.82</ele>
        <time>2021-07-04T15:24:08Z</time>
      </trkpt>
      <trkpt lat="43.49521" lon="-1.53489">
        <ele>33.3</ele>
        <time>2021-07-04T15:24:09Z</time>
      </trkpt>
      <trkpt lat="43.49521" lon="-1.53489">
        <ele>33.3</ele>
        <time>2021-07-04T15:24:10Z</time>
      </trkpt>
      <trkpt lat="43.49525" lon="-1.535">
        <ele>33.3</ele>
        <time>2021-07-04T15:24:11Z</time>
      </trkpt>
      <trkpt lat="43.49559" lon="-1.53584">
        <ele>30.9</ele>
        <time>2021-07-04T15:24:21Z</time>
      </trkpt>
      <trkpt lat="43.49604" lon="-1.5368">
        <ele>27.05</ele>
        <time>2021-07-04T15:24:37Z</time>
      </trkpt>
      <trkpt lat="43.4964" lon="-1.53769">
        <ele>23.69</ele>
        <time>2021-07-04T15:24:50Z</time>
      </trkpt>
      <trkpt lat="43.49649" lon="-1.53793">
        <ele>22.73</ele>
        <time>2021-07-04T15:24:54Z</time>
      </trkpt>
      <trkpt lat="43.49651" lon="-1.53799">
        <ele>22.25</ele>
        <time>2021-07-04T15:24:55Z</time>
      </trkpt>
      <trkpt lat="43.49654" lon="-1.53805">
        <ele>22.25</ele>
        <time>2021-07-04T15:24:56Z</time>
      </trkpt>
      <trkpt lat="43.49666" lon="-1.53812">
        <ele>23.21</ele>
        <time>2021-07-04T15:24:58Z</time>
      </trkpt>
      <trkpt lat="43.49671" lon="-1.53816">
        <ele>23.21</ele>
        <time>2021-07-04T15:24:59Z</time>
      </trkpt>
      <trkpt lat="43.49676" lon="-1.53829">
        <ele>23.21</ele>
        <time>2021-07-04T15:25:01Z</time>
      </trkpt>
      <trkpt lat="43.49684" lon="-1.53834">
        <ele>23.21</ele>
        <time>2021-07-04T15:25:02Z</time>
      </trkpt>
      <trkpt lat="43.49684" lon="-1.53834">
        <ele>23.21</ele>
        <time>2021-07-04T15:25:03Z</time>
      </trkpt>
      <trkpt lat="43.49714" lon="-1.5385">
        <ele>22.73</ele>
        <time>2021-07-04T15:25:08Z</time>
      </trkpt>
      <trkpt lat="43.49722" lon="-1.53854">
        <ele>22.73</ele>
        <time>2021-07-04T15:25:09Z</time>
      </trkpt>
      <trkpt lat="43.49811" lon="-1.53864">
        <ele>22.25</ele>
        <time>2021-07-04T15:25:21Z</time>
      </trkpt>
      <trkpt lat="43.49844" lon="-1.53869">
        <ele>22.73</ele>
        <time>2021-07-04T15:25:26Z</time>
      </trkpt>
      <trkpt lat="43.4985" lon="-1.5387">
        <ele>23.21</ele>
        <time>2021-07-04T15:25:27Z</time>
      </trkpt>
      <trkpt lat="43.49855" lon="-1.53872">
        <ele>23.21</ele>
        <time>2021-07-04T15:25:28Z</time>
      </trkpt>
      <trkpt lat="43.4986" lon="-1.53879">
        <ele>23.21</ele>
        <time>2021-07-04T15:25:29Z</time>
      </trkpt>
      <trkpt lat="43.49866" lon="-1.53887">
        <ele>22.73</ele>
        <time>2021-07-04T15:25:30Z</time>
      </trkpt>
      <trkpt lat="43.49871" lon="-1.53895">
        <ele>22.73</ele>
        <time>2021-07-04T15:25:31Z</time>
      </trkpt>
      <trkpt lat="43.49891" lon="-1.53924">
        <ele>21.77</ele>
        <time>2021-07-04T15:25:35Z</time>
      </trkpt>
      <trkpt lat="43.49894" lon="-1.53931">
        <ele>21.77</ele>
        <time>2021-07-04T15:25:36Z</time>
      </trkpt>
      <trkpt lat="43.49908" lon="-1.53978">
        <ele>19.84</ele>
        <time>2021-07-04T15:25:44Z</time>
      </trkpt>
      <trkpt lat="43.49925" lon="-1.5403">
        <ele>18.4</ele>
        <time>2021-07-04T15:25:51Z</time>
      </trkpt>
      <trkpt lat="43.49929" lon="-1.54034">
        <ele>17.92</ele>
        <time>2021-07-04T15:25:52Z</time>
      </trkpt>
      <trkpt lat="43.49932" lon="-1.54038">
        <ele>17.92</ele>
        <time>2021-07-04T15:25:53Z</time>
      </trkpt>
      <trkpt lat="43.49935" lon="-1.54041">
        <ele>17.44</ele>
        <time>2021-07-04T15:25:54Z</time>
      </trkpt>
      <trkpt lat="43.49943" lon="-1.54042">
        <ele>16.96</ele>
        <time>2021-07-04T15:25:55Z</time>
      </trkpt>
      <trkpt lat="43.49943" lon="-1.54042">
        <ele>16.48</ele>
        <time>2021-07-04T15:25:56Z</time>
      </trkpt>
      <trkpt lat="43.49946" lon="-1.54038">
        <ele>16.48</ele>
        <time>2021-07-04T15:25:57Z</time>
      </trkpt>
      <trkpt lat="43.49953" lon="-1.54033">
        <ele>16</ele>
        <time>2021-07-04T15:25:58Z</time>
      </trkpt>
      <trkpt lat="43.49962" lon="-1.54039">
        <ele>16</ele>
        <time>2021-07-04T15:26:00Z</time>
      </trkpt>
      <trkpt lat="43.49968" lon="-1.54036">
        <ele>16</ele>
        <time>2021-07-04T15:26:01Z</time>
      </trkpt>
      <trkpt lat="43.49972" lon="-1.54032">
        <ele>15.52</ele>
        <time>2021-07-04T15:26:02Z</time>
      </trkpt>
      <trkpt lat="43.49976" lon="-1.54028">
        <ele>15.52</ele>
        <time>2021-07-04T15:26:03Z</time>
      </trkpt>
      <trkpt lat="43.4998" lon="-1.54024">
        <ele>15.04</ele>
        <time>2021-07-04T15:26:04Z</time>
      </trkpt>
      <trkpt lat="43.49984" lon="-1.5402">
        <ele>15.04</ele>
        <time>2021-07-04T15:26:05Z</time>
      </trkpt>
      <trkpt lat="43.49989" lon="-1.54015">
        <ele>14.56</ele>
        <time>2021-07-04T15:26:06Z</time>
      </trkpt>
      <trkpt lat="43.49995" lon="-1.54003">
        <ele>14.08</ele>
        <time>2021-07-04T15:26:07Z</time>
      </trkpt>
      <trkpt lat="43.49995" lon="-1.54003">
        <ele>13.6</ele>
        <time>2021-07-04T15:26:08Z</time>
      </trkpt>
      <trkpt lat="43.49997" lon="-1.53995">
        <ele>13.12</ele>
        <time>2021-07-04T15:26:09Z</time>
      </trkpt>
      <trkpt lat="43.49999" lon="-1.53988">
        <ele>12.63</ele>
        <time>2021-07-04T15:26:10Z</time>
      </trkpt>
      <trkpt lat="43.50001" lon="-1.5398">
        <ele>12.63</ele>
        <time>2021-07-04T15:26:11Z</time>
      </trkpt>
      <trkpt lat="43.50004" lon="-1.53972">
        <ele>12.15</ele>
        <time>2021-07-04T15:26:12Z</time>
      </trkpt>
      <trkpt lat="43.50008" lon="-1.53957">
        <ele>11.19</ele>
        <time>2021-07-04T15:26:14Z</time>
      </trkpt>
      <trkpt lat="43.50011" lon="-1.53949">
        <ele>10.71</ele>
        <time>2021-07-04T15:26:15Z</time>
      </trkpt>
      <trkpt lat="43.50014" lon="-1.53942">
        <ele>10.23</ele>
        <time>2021-07-04T15:26:16Z</time>
      </trkpt>
      <trkpt lat="43.50018" lon="-1.53935">
        <ele>9.75</ele>
        <time>2021-07-04T15:26:17Z</time>
      </trkpt>
      <trkpt lat="43.50022" lon="-1.53927">
        <ele>8.79</ele>
        <time>2021-07-04T15:26:18Z</time>
      </trkpt>
      <trkpt lat="43.50026" lon="-1.5392">
        <ele>8.31</ele>
        <time>2021-07-04T15:26:19Z</time>
      </trkpt>
      <trkpt lat="43.50031" lon="-1.53913">
        <ele>7.83</ele>
        <time>2021-07-04T15:26:20Z</time>
      </trkpt>
      <trkpt lat="43.50081" lon="-1.53855">
        <ele>3.98</ele>
        <time>2021-07-04T15:26:30Z</time>
      </trkpt>
      <trkpt lat="43.50084" lon="-1.5385">
        <ele>3.98</ele>
        <time>2021-07-04T15:26:31Z</time>
      </trkpt>
      <trkpt lat="43.50087" lon="-1.53844">
        <ele>3.98</ele>
        <time>2021-07-04T15:26:32Z</time>
      </trkpt>
      <trkpt lat="43.50089" lon="-1.5383">
        <ele>3.98</ele>
        <time>2021-07-04T15:26:34Z</time>
      </trkpt>
      <trkpt lat="43.5009" lon="-1.53824">
        <ele>3.98</ele>
        <time>2021-07-04T15:26:35Z</time>
      </trkpt>
      <trkpt lat="43.50098" lon="-1.53819">
        <ele>3.98</ele>
        <time>2021-07-04T15:26:36Z</time>
      </trkpt>
      <trkpt lat="43.50103" lon="-1.53818">
        <ele>3.98</ele>
        <time>2021-07-04T15:26:37Z</time>
      </trkpt>
      <trkpt lat="43.50109" lon="-1.53813">
        <ele>3.98</ele>
        <time>2021-07-04T15:26:38Z</time>
      </trkpt>
      <trkpt lat="43.50114" lon="-1.53808">
        <ele>3.98</ele>
        <time>2021-07-04T15:26:39Z</time>
      </trkpt>
      <trkpt lat="43.50119" lon="-1.53803">
        <ele>3.98</ele>
        <time>2021-07-04T15:26:40Z</time>
      </trkpt>
      <trkpt lat="43.50164" lon="-1.53758">
        <ele>3.5</ele>
        <time>2021-07-04T15:26:50Z</time>
      </trkpt>
      <trkpt lat="43.50183" lon="-1.53743">
        <ele>3.5</ele>
        <time>2021-07-04T15:27:00Z</time>
      </trkpt>
      <trkpt lat="43.50225" lon="-1.53705">
        <ele>3.5</ele>
        <time>2021-07-04T15:27:10Z</time>
      </trkpt>
      <trkpt lat="43.50299" lon="-1.53649">
        <ele>3.5</ele>
        <time>2021-07-04T15:27:24Z</time>
      </trkpt>
      <trkpt lat="43.50334" lon="-1.53629">
        <ele>3.5</ele>
        <time>2021-07-04T15:27:36Z</time>
      </trkpt>
      <trkpt lat="43.50379" lon="-1.53596">
        <ele>3.5</ele>
        <time>2021-07-04T15:27:44Z</time>
      </trkpt>
      <trkpt lat="43.50491" lon="-1.53508">
        <ele>0.62</ele>
        <time>2021-07-04T15:27:59Z</time>
      </trkpt>
      <trkpt lat="43.50531" lon="-1.53475">
        <ele>1.1</ele>
        <time>2021-07-04T15:28:07Z</time>
      </trkpt>
      <trkpt lat="43.50578" lon="-1.53442">
        <ele>0.62</ele>
        <time>2021-07-04T15:28:18Z</time>
      </trkpt>
      <trkpt lat="43.50664" lon="-1.53385">
        <ele>-0.82</ele>
        <time>2021-07-04T15:28:30Z</time>
      </trkpt>
      <trkpt lat="43.50691" lon="-1.53367">
        <ele>1.58</ele>
        <time>2021-07-04T15:28:36Z</time>
      </trkpt>
      <trkpt lat="43.50693" lon="-1.53365">
        <ele>1.58</ele>
        <time>2021-07-04T15:28:37Z</time>
      </trkpt>
      <trkpt lat="43.50692" lon="-1.5337">
        <ele>0.62</ele>
        <time>2021-07-04T15:28:38Z</time>
      </trkpt>
      <trkpt lat="43.50693" lon="-1.53373">
        <ele>0.62</ele>
        <time>2021-07-04T15:28:39Z</time>
      </trkpt>
      <trkpt lat="43.50694" lon="-1.53376">
        <ele>1.1</ele>
        <time>2021-07-04T15:28:40Z</time>
      </trkpt>
      <trkpt lat="43.50695" lon="-1.53379">
        <ele>1.1</ele>
        <time>2021-07-04T15:28:41Z</time>
      </trkpt>
    </trkseg>
  </trk>
</gpx>